CCA847 ZSPD-EGKK
Flight info
| Callsign | CCA847 |
|---|---|
| Flight time | N/A |
| Altitude | 34100 |
| Route | PIK84D PIKAS G330 PIMOL A593 ABTUB/K0911S1100 A593 DALIM W157 BEKDO/K0913S1070 W157 VYK G212 SOTMU/K0907S1100 B339 POLHO Y520 SERNA/K0917F360 R497 BD/K0913F380 R497 TODES B228 HMN L870 TUNAL/K0904F400 L870 RANVA/N0491F400 L870 RESMO DCT ETPIG DCT GORAX DCT ALASA DCT IZZEX N872 PAM L980 VALKO DCT GALSO Q63 ARREK Y4 TEBRA |
| Aircraft | A359/H-SDE2E3GHIJ3J4J5LM1ORWXY/LB1D1 |
Departure
| Time | 2026-05-05 15:00 |
|---|---|
| Airport | Shanghai Pudong International Airport (ZSPD) |
Arrival
| Time | N/A |
|---|---|
| Airport | London Gatwick Airport (EGKK) |
| Time | Latitude | Longitude | Altitude | Speed | Heading |
|---|---|---|---|---|---|
| 2026-05-05 14:32 | 31.15818 | 121.80559 | 29 ft | 0 kts | 251° |
| 2026-05-05 14:41 | 31.15822 | 121.80573 | 29 ft | 4 kts | 252° |
| 2026-05-05 14:42 | 31.15830 | 121.80603 | 29 ft | 4 kts | 252° |
| 2026-05-05 14:42 | 31.15840 | 121.80631 | 27 ft | 4 kts | 228° |
| 2026-05-05 14:42 | 31.15860 | 121.80644 | 27 ft | 4 kts | 175° |
| 2026-05-05 14:42 | 31.15880 | 121.80639 | 28 ft | 4 kts | 162° |
| 2026-05-05 14:43 | 31.15894 | 121.80633 | 27 ft | 0 kts | 162° |
| 2026-05-05 14:46 | 31.15893 | 121.80634 | 27 ft | 1 kts | 162° |
| 2026-05-05 14:46 | 31.15869 | 121.80643 | 27 ft | 4 kts | 162° |
| 2026-05-05 14:47 | 31.15830 | 121.80658 | 27 ft | 7 kts | 162° |
| 2026-05-05 14:47 | 31.15783 | 121.80675 | 29 ft | 7 kts | 162° |
| 2026-05-05 14:47 | 31.15731 | 121.80694 | 29 ft | 8 kts | 162° |
| 2026-05-05 14:47 | 31.15676 | 121.80715 | 29 ft | 9 kts | 162° |
| 2026-05-05 14:48 | 31.15616 | 121.80738 | 29 ft | 9 kts | 161° |
| 2026-05-05 14:48 | 31.15553 | 121.80762 | 29 ft | 10 kts | 162° |
| 2026-05-05 14:48 | 31.15487 | 121.80787 | 29 ft | 10 kts | 162° |
| 2026-05-05 14:48 | 31.15403 | 121.80819 | 29 ft | 13 kts | 162° |
| 2026-05-05 14:49 | 31.15315 | 121.80852 | 29 ft | 13 kts | 163° |
| 2026-05-05 14:49 | 31.15219 | 121.80888 | 29 ft | 15 kts | 162° |
| 2026-05-05 14:49 | 31.15120 | 121.80925 | 29 ft | 15 kts | 162° |
| 2026-05-05 14:49 | 31.15022 | 121.80962 | 28 ft | 15 kts | 162° |
| 2026-05-05 14:50 | 31.14923 | 121.81000 | 29 ft | 15 kts | 161° |
| 2026-05-05 14:50 | 31.14826 | 121.81037 | 29 ft | 14 kts | 162° |
| 2026-05-05 14:50 | 31.14729 | 121.81073 | 29 ft | 15 kts | 162° |
| 2026-05-05 14:50 | 31.14631 | 121.81110 | 29 ft | 15 kts | 161° |
| 2026-05-05 14:51 | 31.14535 | 121.81146 | 29 ft | 15 kts | 162° |
| 2026-05-05 14:51 | 31.14452 | 121.81148 | 29 ft | 10 kts | 217° |
| 2026-05-05 14:51 | 31.14416 | 121.81069 | 29 ft | 14 kts | 252° |
| 2026-05-05 14:51 | 31.14384 | 121.80951 | 29 ft | 18 kts | 252° |
| 2026-05-05 14:52 | 31.14345 | 121.80810 | 29 ft | 18 kts | 252° |
| 2026-05-05 14:52 | 31.14306 | 121.80670 | 29 ft | 18 kts | 252° |
| 2026-05-05 14:52 | 31.14266 | 121.80528 | 29 ft | 18 kts | 252° |
| 2026-05-05 14:52 | 31.14226 | 121.80385 | 29 ft | 19 kts | 252° |
| 2026-05-05 14:53 | 31.14187 | 121.80241 | 29 ft | 18 kts | 253° |
| 2026-05-05 14:53 | 31.14149 | 121.80105 | 29 ft | 18 kts | 252° |
| 2026-05-05 14:53 | 31.14112 | 121.79970 | 29 ft | 18 kts | 252° |
| 2026-05-05 14:53 | 31.14073 | 121.79831 | 29 ft | 18 kts | 252° |
| 2026-05-05 14:54 | 31.14043 | 121.79693 | 29 ft | 18 kts | 258° |
| 2026-05-05 14:54 | 31.14084 | 121.79594 | 29 ft | 14 kts | 330° |
| 2026-05-05 14:54 | 31.14190 | 121.79548 | 29 ft | 18 kts | 343° |
| 2026-05-05 14:54 | 31.14311 | 121.79505 | 29 ft | 18 kts | 342° |
| 2026-05-05 14:55 | 31.14432 | 121.79458 | 29 ft | 19 kts | 341° |
| 2026-05-05 14:55 | 31.14561 | 121.79408 | 29 ft | 20 kts | 342° |
| 2026-05-05 14:55 | 31.14696 | 121.79357 | 29 ft | 20 kts | 342° |
| 2026-05-05 14:55 | 31.14831 | 121.79307 | 29 ft | 21 kts | 342° |
| 2026-05-05 14:56 | 31.14969 | 121.79255 | 29 ft | 21 kts | 342° |
| 2026-05-05 14:56 | 31.15118 | 121.79200 | 29 ft | 23 kts | 342° |
| 2026-05-05 14:56 | 31.15270 | 121.79142 | 29 ft | 23 kts | 341° |
| 2026-05-05 14:56 | 31.15424 | 121.79083 | 28 ft | 23 kts | 342° |
| 2026-05-05 14:57 | 31.15579 | 121.79023 | 28 ft | 23 kts | 342° |
| 2026-05-05 14:57 | 31.15734 | 121.78966 | 28 ft | 23 kts | 342° |
| 2026-05-05 14:57 | 31.15870 | 121.78914 | 29 ft | 15 kts | 342° |
| 2026-05-05 14:57 | 31.15957 | 121.78859 | 29 ft | 13 kts | 293° |
| 2026-05-05 14:58 | 31.15953 | 121.78806 | 29 ft | 5 kts | 254° |
| 2026-05-05 14:58 | 31.15951 | 121.78799 | 29 ft | 0 kts | 255° |
| 2026-05-05 14:58 | 31.15944 | 121.78769 | 28 ft | 13 kts | 254° |
| 2026-05-05 14:58 | 31.15880 | 121.78695 | 28 ft | 9 kts | 179° |
| 2026-05-05 14:59 | 31.15725 | 121.78750 | 29 ft | 49 kts | 162° |
| 2026-05-05 14:59 | 31.15215 | 121.78941 | 28 ft | 103 kts | 162° |
| 2026-05-05 14:59 | 31.14369 | 121.79261 | 28 ft | 150 kts | 162° |
| 2026-05-05 14:59 | 31.13302 | 121.79659 | 407 ft | 159 kts | 161° |
| 2026-05-05 15:00 | 31.12252 | 121.80063 | 928 ft | 160 kts | 163° |
| 2026-05-05 15:00 | 31.11541 | 121.80316 | 1356 ft | 160 kts | 165° |
| 2026-05-05 15:00 | 31.10019 | 121.80816 | 1694 ft | 184 kts | 167° |
| 2026-05-05 15:00 | 31.08709 | 121.81244 | 1903 ft | 206 kts | 167° |
| 2026-05-05 15:01 | 31.07263 | 121.81724 | 2133 ft | 226 kts | 166° |
| 2026-05-05 15:01 | 31.05696 | 121.82252 | 2500 ft | 239 kts | 165° |
| 2026-05-05 15:01 | 31.04074 | 121.82801 | 3022 ft | 245 kts | 165° |
| 2026-05-05 15:01 | 31.02406 | 121.83211 | 3516 ft | 251 kts | 176° |
| 2026-05-05 15:02 | 31.00660 | 121.82922 | 3992 ft | 259 kts | 201° |
| 2026-05-05 15:02 | 30.99163 | 121.81734 | 4489 ft | 264 kts | 226° |
| 2026-05-05 15:02 | 30.97971 | 121.80091 | 5038 ft | 268 kts | 235° |
| 2026-05-05 15:02 | 30.97215 | 121.78097 | 5624 ft | 271 kts | 258° |
| 2026-05-05 15:03 | 30.97270 | 121.75940 | 6227 ft | 274 kts | 287° |
| 2026-05-05 15:03 | 30.98228 | 121.74022 | 6818 ft | 276 kts | 309° |
| 2026-05-05 15:03 | 30.99500 | 121.72324 | 7398 ft | 279 kts | 311° |
| 2026-05-05 15:03 | 31.00811 | 121.70626 | 7997 ft | 282 kts | 310° |
| 2026-05-05 15:04 | 31.02113 | 121.68926 | 8610 ft | 285 kts | 310° |
| 2026-05-05 15:04 | 31.03440 | 121.67182 | 9214 ft | 288 kts | 310° |
| 2026-05-05 15:04 | 31.04772 | 121.65422 | 9817 ft | 291 kts | 310° |
| 2026-05-05 15:04 | 31.06120 | 121.63639 | 10301 ft | 299 kts | 310° |
| 2026-05-05 15:05 | 31.08995 | 121.59820 | 10789 ft | 329 kts | 310° |
| 2026-05-05 15:05 | 31.10545 | 121.57760 | 11036 ft | 343 kts | 310° |
| 2026-05-05 15:05 | 31.12151 | 121.55626 | 11273 ft | 357 kts | 310° |
| 2026-05-05 15:06 | 31.13819 | 121.53407 | 11500 ft | 369 kts | 310° |
| 2026-05-05 15:06 | 31.15541 | 121.51113 | 11765 ft | 380 kts | 310° |
| 2026-05-05 15:06 | 31.17293 | 121.48782 | 12236 ft | 383 kts | 310° |
| 2026-05-05 15:06 | 31.19038 | 121.46456 | 12770 ft | 384 kts | 310° |
| 2026-05-05 15:07 | 31.20816 | 121.44085 | 13191 ft | 389 kts | 310° |
| 2026-05-05 15:07 | 31.22605 | 121.41699 | 13689 ft | 391 kts | 310° |
| 2026-05-05 15:07 | 31.24414 | 121.39281 | 14096 ft | 395 kts | 310° |
| 2026-05-05 15:07 | 31.26231 | 121.36854 | 14571 ft | 395 kts | 310° |
| 2026-05-05 15:08 | 31.28026 | 121.34453 | 15021 ft | 397 kts | 310° |
| 2026-05-05 15:08 | 31.29846 | 121.32018 | 15460 ft | 399 kts | 310° |
| 2026-05-05 15:08 | 31.31674 | 121.29571 | 15908 ft | 400 kts | 310° |
| 2026-05-05 15:08 | 31.33515 | 121.27104 | 16352 ft | 402 kts | 310° |
| 2026-05-05 15:09 | 31.35360 | 121.24630 | 16829 ft | 404 kts | 310° |
| 2026-05-05 15:09 | 31.37218 | 121.22137 | 17307 ft | 405 kts | 310° |
| 2026-05-05 15:09 | 31.39054 | 121.19673 | 17770 ft | 407 kts | 310° |
| 2026-05-05 15:09 | 31.40924 | 121.17162 | 18214 ft | 409 kts | 310° |
| 2026-05-05 15:10 | 31.42801 | 121.14639 | 18635 ft | 412 kts | 310° |
| 2026-05-05 15:10 | 31.44826 | 121.12255 | 19006 ft | 415 kts | 320° |
| 2026-05-05 15:10 | 31.47253 | 121.10467 | 19396 ft | 418 kts | 332° |
| 2026-05-05 15:10 | 31.49909 | 121.09009 | 19806 ft | 421 kts | 334° |
| 2026-05-05 15:11 | 31.52590 | 121.07604 | 20218 ft | 423 kts | 334° |
| 2026-05-05 15:11 | 31.55288 | 121.06188 | 20640 ft | 425 kts | 334° |
| 2026-05-05 15:11 | 31.57993 | 121.04760 | 21065 ft | 427 kts | 334° |
| 2026-05-05 15:11 | 31.60675 | 121.03340 | 21486 ft | 429 kts | 334° |
| 2026-05-05 15:12 | 31.63409 | 121.01887 | 21921 ft | 431 kts | 334° |
| 2026-05-05 15:12 | 31.66149 | 121.00430 | 22391 ft | 433 kts | 334° |
| 2026-05-05 15:12 | 31.68902 | 120.98964 | 22821 ft | 435 kts | 335° |
| 2026-05-05 15:12 | 31.71677 | 120.97484 | 23233 ft | 439 kts | 335° |
| 2026-05-05 15:13 | 31.74464 | 120.95997 | 23644 ft | 441 kts | 335° |
| 2026-05-05 15:13 | 31.77258 | 120.94505 | 24069 ft | 441 kts | 335° |
| 2026-05-05 15:13 | 31.80026 | 120.93026 | 24485 ft | 442 kts | 335° |
| 2026-05-05 15:13 | 31.82839 | 120.91522 | 24831 ft | 445 kts | 335° |
| 2026-05-05 15:14 | 31.85665 | 120.90010 | 25182 ft | 447 kts | 335° |
| 2026-05-05 15:14 | 31.88505 | 120.88489 | 25546 ft | 449 kts | 335° |
| 2026-05-05 15:14 | 31.91360 | 120.86960 | 25908 ft | 451 kts | 336° |
| 2026-05-05 15:14 | 31.94230 | 120.85421 | 26257 ft | 453 kts | 336° |
| 2026-05-05 15:15 | 31.97102 | 120.83885 | 26621 ft | 455 kts | 336° |
| 2026-05-05 15:15 | 31.99991 | 120.82334 | 26986 ft | 456 kts | 336° |
| 2026-05-05 15:15 | 32.02887 | 120.80773 | 27313 ft | 458 kts | 336° |
| 2026-05-05 15:15 | 32.05763 | 120.79215 | 27621 ft | 461 kts | 335° |
| 2026-05-05 15:16 | 32.08593 | 120.77384 | 27935 ft | 464 kts | 328° |
| 2026-05-05 15:16 | 32.11180 | 120.75070 | 28230 ft | 468 kts | 320° |
| 2026-05-05 15:16 | 32.13433 | 120.72281 | 28513 ft | 472 kts | 311° |
| 2026-05-05 15:16 | 32.15292 | 120.69063 | 28794 ft | 478 kts | 302° |
| 2026-05-05 15:17 | 32.16695 | 120.65489 | 29070 ft | 483 kts | 292° |
| 2026-05-05 15:17 | 32.17590 | 120.61634 | 29304 ft | 489 kts | 283° |
| 2026-05-05 15:17 | 32.18070 | 120.57700 | 29692 ft | 490 kts | 280° |
| 2026-05-05 15:17 | 32.18438 | 120.53691 | 30102 ft | 490 kts | 279° |
| 2026-05-05 15:18 | 32.18752 | 120.49675 | 30461 ft | 488 kts | 278° |
| 2026-05-05 15:18 | 32.19046 | 120.45700 | 30857 ft | 485 kts | 278° |
| 2026-05-05 15:18 | 32.19342 | 120.41728 | 31218 ft | 483 kts | 278° |
| 2026-05-05 15:18 | 32.19640 | 120.37821 | 31517 ft | 482 kts | 278° |
| 2026-05-05 15:19 | 32.19952 | 120.33865 | 31770 ft | 482 kts | 278° |
| 2026-05-05 15:19 | 32.20268 | 120.29928 | 32064 ft | 481 kts | 279° |
| 2026-05-05 15:19 | 32.20587 | 120.26001 | 32382 ft | 479 kts | 279° |
| 2026-05-05 15:19 | 32.20907 | 120.22089 | 32680 ft | 478 kts | 279° |
| 2026-05-05 15:20 | 32.21228 | 120.18180 | 32968 ft | 477 kts | 279° |
| 2026-05-05 15:20 | 32.21543 | 120.14333 | 33232 ft | 476 kts | 278° |
| 2026-05-05 15:20 | 32.21860 | 120.10438 | 33488 ft | 475 kts | 279° |
| 2026-05-05 15:20 | 32.22173 | 120.06562 | 33783 ft | 473 kts | 279° |
| 2026-05-05 15:21 | 32.22484 | 120.02703 | 34026 ft | 472 kts | 279° |
| 2026-05-05 15:21 | 32.23106 | 119.94953 | 34069 ft | 479 kts | 279° |
| 2026-05-05 15:22 | 32.23752 | 119.87096 | 34069 ft | 478 kts | 281° |
| 2026-05-05 15:22 | 32.25450 | 119.79634 | 34061 ft | 469 kts | 297° |
| 2026-05-05 15:23 | 32.28905 | 119.73203 | 34061 ft | 461 kts | 315° |
| 2026-05-05 15:23 | 32.33698 | 119.68299 | 34057 ft | 458 kts | 325° |
| 2026-05-05 15:24 | 32.38879 | 119.63868 | 34063 ft | 458 kts | 326° |
| 2026-05-05 15:24 | 32.44087 | 119.59495 | 34058 ft | 458 kts | 326° |
| 2026-05-05 15:25 | 32.49246 | 119.55121 | 34056 ft | 458 kts | 326° |
| 2026-05-05 15:25 | 32.54409 | 119.50666 | 34053 ft | 457 kts | 326° |
| 2026-05-05 15:26 | 32.59517 | 119.46232 | 34047 ft | 456 kts | 326° |
| 2026-05-05 15:26 | 32.64634 | 119.41793 | 34047 ft | 455 kts | 326° |
| 2026-05-05 15:27 | 32.69739 | 119.37363 | 34048 ft | 455 kts | 326° |
| 2026-05-05 15:27 | 32.74851 | 119.32924 | 34042 ft | 455 kts | 326° |
| 2026-05-05 15:28 | 32.79953 | 119.28487 | 34048 ft | 455 kts | 326° |
| 2026-05-05 15:28 | 32.85086 | 119.24016 | 34033 ft | 455 kts | 326° |
| 2026-05-05 15:29 | 32.90161 | 119.19588 | 34044 ft | 454 kts | 326° |
| 2026-05-05 15:29 | 32.95270 | 119.15129 | 34043 ft | 453 kts | 326° |
| 2026-05-05 15:30 | 33.00363 | 119.10737 | 34042 ft | 453 kts | 326° |
| 2026-05-05 15:30 | 33.04625 | 119.07074 | 34041 ft | 453 kts | 326° |
| 2026-05-05 15:31 | 33.09717 | 119.02689 | 34038 ft | 453 kts | 326° |
| 2026-05-05 15:31 | 33.14835 | 118.98269 | 34033 ft | 453 kts | 326° |
| 2026-05-05 15:32 | 33.19943 | 118.93848 | 34031 ft | 451 kts | 326° |
| 2026-05-05 15:32 | 33.24976 | 118.89474 | 34030 ft | 449 kts | 326° |
| 2026-05-05 15:33 | 33.30024 | 118.85052 | 34027 ft | 449 kts | 326° |
| 2026-05-05 15:33 | 33.35086 | 118.80657 | 34028 ft | 449 kts | 326° |
| 2026-05-05 15:34 | 33.40119 | 118.76297 | 34022 ft | 449 kts | 326° |
| 2026-05-05 15:34 | 33.45178 | 118.71908 | 34030 ft | 449 kts | 326° |
| 2026-05-05 15:35 | 33.50222 | 118.67538 | 34028 ft | 448 kts | 326° |
| 2026-05-05 15:35 | 33.55282 | 118.63148 | 34021 ft | 445 kts | 326° |
| 2026-05-05 15:36 | 33.60264 | 118.58821 | 34023 ft | 443 kts | 326° |
| 2026-05-05 15:36 | 33.65261 | 118.54476 | 34020 ft | 443 kts | 326° |
| 2026-05-05 15:37 | 33.70265 | 118.50119 | 34016 ft | 443 kts | 326° |
| 2026-05-05 15:37 | 33.75228 | 118.45791 | 34027 ft | 443 kts | 326° |
| 2026-05-05 15:38 | 33.80204 | 118.41443 | 34013 ft | 440 kts | 326° |
| 2026-05-05 15:38 | 33.85130 | 118.37135 | 34015 ft | 440 kts | 326° |
| 2026-05-05 15:39 | 33.90061 | 118.32815 | 34015 ft | 436 kts | 326° |
| 2026-05-05 15:39 | 33.94963 | 118.28514 | 34012 ft | 434 kts | 326° |
| 2026-05-05 15:40 | 33.99858 | 118.24229 | 34012 ft | 434 kts | 327° |
| 2026-05-05 15:40 | 34.04739 | 118.19983 | 34018 ft | 434 kts | 327° |
| 2026-05-05 15:41 | 34.09633 | 118.15722 | 34008 ft | 433 kts | 327° |
| 2026-05-05 15:41 | 34.14526 | 118.11459 | 34005 ft | 432 kts | 327° |
| 2026-05-05 15:42 | 34.19382 | 118.07228 | 34011 ft | 432 kts | 327° |
| 2026-05-05 15:42 | 34.24248 | 118.02981 | 34000 ft | 429 kts | 327° |
| 2026-05-05 15:43 | 34.29425 | 117.99483 | 34003 ft | 425 kts | 339° |
| 2026-05-05 15:43 | 34.34995 | 117.97231 | 34004 ft | 424 kts | 343° |
| 2026-05-05 15:44 | 34.40658 | 117.95211 | 34004 ft | 424 kts | 343° |
| 2026-05-05 15:44 | 34.46329 | 117.93222 | 34000 ft | 424 kts | 343° |
| 2026-05-05 15:45 | 34.52002 | 117.91210 | 34006 ft | 424 kts | 343° |
| 2026-05-05 15:45 | 34.57676 | 117.89180 | 34003 ft | 424 kts | 343° |
| 2026-05-05 15:46 | 34.63309 | 117.87158 | 33998 ft | 424 kts | 343° |
| 2026-05-05 15:46 | 34.68944 | 117.85131 | 33998 ft | 424 kts | 343° |
| 2026-05-05 15:47 | 34.74612 | 117.83092 | 34004 ft | 424 kts | 343° |
| 2026-05-05 15:47 | 34.80243 | 117.81062 | 34000 ft | 423 kts | 343° |
| 2026-05-05 15:48 | 34.85911 | 117.79016 | 34004 ft | 424 kts | 343° |
| 2026-05-05 15:48 | 34.91573 | 117.76940 | 34002 ft | 424 kts | 343° |
| 2026-05-05 15:49 | 34.97208 | 117.74867 | 34000 ft | 424 kts | 343° |
| 2026-05-05 15:49 | 35.02844 | 117.72799 | 34000 ft | 424 kts | 343° |
| 2026-05-05 15:50 | 35.08515 | 117.70725 | 34005 ft | 424 kts | 343° |
| 2026-05-05 15:50 | 35.14151 | 117.68664 | 33997 ft | 424 kts | 342° |
| 2026-05-05 15:51 | 35.19811 | 117.66581 | 33996 ft | 425 kts | 342° |
| 2026-05-05 15:51 | 35.25490 | 117.64489 | 33989 ft | 424 kts | 342° |
| 2026-05-05 15:52 | 35.31121 | 117.62415 | 33990 ft | 424 kts | 342° |
| 2026-05-05 15:52 | 35.36786 | 117.60326 | 33991 ft | 424 kts | 342° |
| 2026-05-05 15:53 | 35.42417 | 117.58246 | 33981 ft | 425 kts | 342° |
| 2026-05-05 15:53 | 35.48089 | 117.56147 | 33978 ft | 425 kts | 342° |
| 2026-05-05 15:54 | 35.53755 | 117.54045 | 33979 ft | 425 kts | 342° |
| 2026-05-05 15:54 | 35.59384 | 117.51959 | 33979 ft | 425 kts | 342° |
| 2026-05-05 15:55 | 35.65055 | 117.49854 | 33973 ft | 425 kts | 342° |
| 2026-05-05 15:55 | 35.70721 | 117.47747 | 33972 ft | 424 kts | 342° |
| 2026-05-05 15:56 | 35.76349 | 117.45649 | 33959 ft | 426 kts | 342° |
| 2026-05-05 15:56 | 35.82032 | 117.43529 | 33963 ft | 426 kts | 342° |
| 2026-05-05 15:57 | 35.87685 | 117.41417 | 33957 ft | 426 kts | 342° |
| 2026-05-05 15:57 | 35.93367 | 117.39291 | 33957 ft | 426 kts | 342° |
| 2026-05-05 15:58 | 35.99008 | 117.37177 | 34188 ft | 423 kts | 342° |
| 2026-05-05 15:58 | 36.01817 | 117.36128 | 34549 ft | 418 kts | 342° |
| 2026-05-05 15:58 | 36.04596 | 117.35099 | 34857 ft | 415 kts | 342° |
| 2026-05-05 15:58 | 36.07354 | 117.34082 | 35116 ft | 413 kts | 341° |
| 2026-05-05 15:59 | 36.10111 | 117.33066 | 35351 ft | 411 kts | 341° |
| 2026-05-05 15:59 | 36.12856 | 117.32053 | 35560 ft | 410 kts | 341° |
| 2026-05-05 15:59 | 36.15587 | 117.31044 | 35738 ft | 409 kts | 341° |
| 2026-05-05 15:59 | 36.18278 | 117.30048 | 35905 ft | 408 kts | 341° |
| 2026-05-05 16:00 | 36.21007 | 117.29036 | 35948 ft | 410 kts | 341° |
| 2026-05-05 16:00 | 36.26519 | 117.26989 | 35944 ft | 414 kts | 341° |
| 2026-05-05 16:01 | 36.32015 | 117.24947 | 35950 ft | 414 kts | 341° |
| 2026-05-05 16:01 | 36.37534 | 117.22893 | 35929 ft | 413 kts | 341° |
| 2026-05-05 16:02 | 36.42989 | 117.20634 | 35923 ft | 411 kts | 336° |
| 2026-05-05 16:02 | 36.48274 | 117.17961 | 35931 ft | 412 kts | 336° |
| 2026-05-05 16:03 | 36.53577 | 117.15203 | 35916 ft | 412 kts | 336° |
| 2026-05-05 16:03 | 36.58848 | 117.12448 | 35921 ft | 413 kts | 335° |
| 2026-05-05 16:04 | 36.64128 | 117.09690 | 35900 ft | 413 kts | 335° |
| 2026-05-05 16:04 | 36.69423 | 117.06924 | 35896 ft | 412 kts | 335° |
| 2026-05-05 16:05 | 36.74730 | 117.04149 | 35888 ft | 412 kts | 335° |
| 2026-05-05 16:05 | 36.80011 | 117.01384 | 35890 ft | 412 kts | 335° |
| 2026-05-05 16:06 | 36.85312 | 116.98605 | 35872 ft | 412 kts | 335° |
| 2026-05-05 16:06 | 36.90586 | 116.95834 | 35875 ft | 412 kts | 335° |
| 2026-05-05 16:07 | 36.95895 | 116.93041 | 35871 ft | 412 kts | 335° |
| 2026-05-05 16:07 | 37.01194 | 116.90250 | 35868 ft | 412 kts | 335° |
| 2026-05-05 16:08 | 37.06453 | 116.87475 | 35882 ft | 413 kts | 335° |
| 2026-05-05 16:08 | 37.11757 | 116.84673 | 35860 ft | 412 kts | 334° |
| 2026-05-05 16:09 | 37.17023 | 116.81885 | 35860 ft | 412 kts | 334° |
| 2026-05-05 16:09 | 37.22372 | 116.79230 | 35858 ft | 414 kts | 339° |
| 2026-05-05 16:10 | 37.27889 | 116.77057 | 35854 ft | 415 kts | 340° |
| 2026-05-05 16:10 | 37.33392 | 116.74979 | 35856 ft | 415 kts | 340° |
| 2026-05-05 16:11 | 37.38931 | 116.72898 | 35847 ft | 415 kts | 340° |
| 2026-05-05 16:12 | 37.49990 | 116.68713 | 35844 ft | 415 kts | 339° |
| 2026-05-05 16:13 | 37.63805 | 116.63459 | 35841 ft | 415 kts | 339° |
| 2026-05-05 16:13 | 37.69322 | 116.61354 | 35833 ft | 415 kts | 339° |
| 2026-05-05 16:14 | 37.80375 | 116.57129 | 35838 ft | 415 kts | 339° |
| 2026-05-05 16:15 | 37.91424 | 116.52892 | 35834 ft | 416 kts | 339° |
| 2026-05-05 16:16 | 38.01709 | 116.46676 | 35821 ft | 409 kts | 323° |
| 2026-05-05 16:17 | 38.08635 | 116.40377 | 35813 ft | 409 kts | 322° |
| 2026-05-05 16:18 | 38.14777 | 116.34702 | 35809 ft | 409 kts | 322° |
| 2026-05-05 16:19 | 38.22014 | 116.28916 | 35804 ft | 412 kts | 334° |
| 2026-05-05 16:19 | 38.30521 | 116.26760 | 35811 ft | 428 kts | 354° |
| 2026-05-05 16:20 | 38.36470 | 116.27948 | 35796 ft | 441 kts | 5° |
| 2026-05-05 16:20 | 38.42445 | 116.29973 | 35799 ft | 443 kts | 7° |
| 2026-05-05 16:22 | 38.57293 | 116.35214 | 35799 ft | 443 kts | 6° |
| 2026-05-05 16:23 | 38.69228 | 116.39361 | 35806 ft | 444 kts | 6° |
| 2026-05-05 16:23 | 38.78178 | 116.42510 | 35802 ft | 445 kts | 6° |
| 2026-05-05 16:24 | 38.84132 | 116.44612 | 35802 ft | 445 kts | 6° |
| 2026-05-05 16:25 | 38.93104 | 116.47784 | 35802 ft | 446 kts | 6° |
| 2026-05-05 16:25 | 39.02088 | 116.50967 | 35808 ft | 446 kts | 6° |
| 2026-05-05 16:26 | 39.14057 | 116.55221 | 35813 ft | 447 kts | 6° |
| 2026-05-05 16:27 | 39.20018 | 116.57344 | 35810 ft | 447 kts | 6° |
| 2026-05-05 16:27 | 39.25977 | 116.59898 | 35818 ft | 453 kts | 11° |
| 2026-05-05 16:28 | 39.31872 | 116.62780 | 35816 ft | 456 kts | 11° |
| 2026-05-05 16:28 | 39.37828 | 116.65658 | 35818 ft | 456 kts | 11° |
| 2026-05-05 16:29 | 39.43788 | 116.68467 | 35824 ft | 456 kts | 10° |
| 2026-05-05 16:29 | 39.49779 | 116.71264 | 35812 ft | 457 kts | 10° |
| 2026-05-05 16:30 | 39.55737 | 116.74048 | 35812 ft | 457 kts | 10° |
| 2026-05-05 16:30 | 39.61725 | 116.76857 | 35826 ft | 457 kts | 10° |
| 2026-05-05 16:31 | 39.67678 | 116.79653 | 35804 ft | 458 kts | 10° |
| 2026-05-05 16:31 | 39.73692 | 116.82484 | 35797 ft | 459 kts | 10° |
| 2026-05-05 16:32 | 39.79774 | 116.84450 | 35815 ft | 440 kts | 356° |
| 2026-05-05 16:32 | 39.85725 | 116.84291 | 35798 ft | 425 kts | 345° |
| 2026-05-05 16:33 | 39.91595 | 116.83221 | 35797 ft | 424 kts | 343° |
| 2026-05-05 16:33 | 39.97370 | 116.82024 | 35797 ft | 423 kts | 343° |
| 2026-05-05 16:34 | 40.03209 | 116.80821 | 35796 ft | 424 kts | 343° |
| 2026-05-05 16:34 | 40.09019 | 116.79649 | 35794 ft | 424 kts | 343° |
| 2026-05-05 16:35 | 40.14859 | 116.78480 | 35793 ft | 424 kts | 343° |
| 2026-05-05 16:35 | 40.20696 | 116.77310 | 35814 ft | 424 kts | 343° |
| 2026-05-05 16:36 | 40.26502 | 116.76144 | 35794 ft | 424 kts | 343° |
| 2026-05-05 16:36 | 40.32333 | 116.74893 | 35796 ft | 420 kts | 340° |
| 2026-05-05 16:37 | 40.37912 | 116.72870 | 35800 ft | 416 kts | 336° |
| 2026-05-05 16:37 | 40.43457 | 116.70652 | 35809 ft | 416 kts | 335° |
| 2026-05-05 16:38 | 40.48962 | 116.68405 | 35804 ft | 416 kts | 336° |
| 2026-05-05 16:38 | 40.54507 | 116.66143 | 35798 ft | 416 kts | 335° |
| 2026-05-05 16:39 | 40.60012 | 116.63904 | 35802 ft | 416 kts | 336° |
| 2026-05-05 16:39 | 40.65542 | 116.61653 | 35814 ft | 416 kts | 335° |
| 2026-05-05 16:40 | 40.71101 | 116.59395 | 35804 ft | 417 kts | 335° |
| 2026-05-05 16:40 | 40.76687 | 116.57233 | 35803 ft | 421 kts | 340° |
| 2026-05-05 16:41 | 40.82542 | 116.56220 | 35803 ft | 429 kts | 346° |
| 2026-05-05 16:41 | 40.88499 | 116.55624 | 35813 ft | 431 kts | 346° |
| 2026-05-05 16:42 | 40.94512 | 116.55082 | 35797 ft | 432 kts | 347° |
| 2026-05-05 16:42 | 41.00486 | 116.54549 | 35809 ft | 432 kts | 346° |
| 2026-05-05 16:43 | 41.06503 | 116.53997 | 35808 ft | 432 kts | 346° |
| 2026-05-05 16:43 | 41.12479 | 116.53438 | 35802 ft | 432 kts | 346° |
| 2026-05-05 16:44 | 41.18491 | 116.52871 | 35801 ft | 431 kts | 346° |
| 2026-05-05 16:44 | 41.24289 | 116.51421 | 35803 ft | 415 kts | 333° |
| 2026-05-05 16:45 | 41.29414 | 116.48267 | 35806 ft | 406 kts | 324° |
| 2026-05-05 16:45 | 41.34316 | 116.44475 | 35808 ft | 406 kts | 323° |
| 2026-05-05 16:46 | 41.39131 | 116.40620 | 35796 ft | 406 kts | 322° |
| 2026-05-05 16:46 | 41.43980 | 116.36741 | 35797 ft | 405 kts | 323° |
| 2026-05-05 16:47 | 41.48797 | 116.32904 | 35823 ft | 405 kts | 323° |
| 2026-05-05 16:47 | 41.53649 | 116.29040 | 35796 ft | 406 kts | 323° |
| 2026-05-05 16:48 | 41.58512 | 116.25174 | 35805 ft | 406 kts | 322° |
| 2026-05-05 16:48 | 41.63354 | 116.21325 | 35798 ft | 403 kts | 322° |
| 2026-05-05 16:49 | 41.68146 | 116.17493 | 35799 ft | 403 kts | 322° |
| 2026-05-05 16:49 | 41.72959 | 116.13635 | 35826 ft | 403 kts | 322° |
| 2026-05-05 16:50 | 41.77782 | 116.09764 | 35799 ft | 404 kts | 322° |
| 2026-05-05 16:50 | 41.82610 | 116.05885 | 35803 ft | 404 kts | 322° |
| 2026-05-05 16:51 | 41.87407 | 116.02025 | 35806 ft | 404 kts | 322° |
| 2026-05-05 16:51 | 41.92235 | 115.98133 | 35816 ft | 404 kts | 322° |
| 2026-05-05 16:52 | 41.97058 | 115.94230 | 35844 ft | 403 kts | 321° |
| 2026-05-05 16:52 | 42.01678 | 115.90050 | 35827 ft | 401 kts | 318° |
| 2026-05-05 16:53 | 42.06209 | 115.85724 | 35829 ft | 401 kts | 318° |
| 2026-05-05 16:53 | 42.10787 | 115.81406 | 35837 ft | 401 kts | 319° |
| 2026-05-05 16:54 | 42.15367 | 115.77140 | 35837 ft | 401 kts | 319° |
| 2026-05-05 16:54 | 42.19961 | 115.72872 | 35847 ft | 399 kts | 319° |
| 2026-05-05 16:55 | 42.24509 | 115.68638 | 35852 ft | 398 kts | 319° |
| 2026-05-05 16:55 | 42.29075 | 115.64385 | 35852 ft | 398 kts | 319° |
| 2026-05-05 16:56 | 42.33638 | 115.60116 | 35857 ft | 397 kts | 318° |
| 2026-05-05 16:56 | 42.38159 | 115.55878 | 35862 ft | 397 kts | 318° |
| 2026-05-05 16:57 | 42.42701 | 115.51619 | 35863 ft | 395 kts | 318° |
| 2026-05-05 16:57 | 42.47212 | 115.47378 | 35866 ft | 395 kts | 318° |
| 2026-05-05 16:58 | 42.51718 | 115.43134 | 35873 ft | 397 kts | 318° |
| 2026-05-05 16:58 | 42.56263 | 115.38848 | 35869 ft | 397 kts | 318° |
| 2026-05-05 16:59 | 42.60799 | 115.34566 | 35872 ft | 396 kts | 317° |
| 2026-05-05 16:59 | 42.65297 | 115.30309 | 35872 ft | 396 kts | 317° |
| 2026-05-05 17:00 | 42.69815 | 115.26024 | 35876 ft | 395 kts | 317° |
| 2026-05-05 17:00 | 42.74310 | 115.21753 | 35881 ft | 397 kts | 317° |
| 2026-05-05 17:01 | 42.78853 | 115.17429 | 35877 ft | 397 kts | 317° |
| 2026-05-05 17:01 | 42.82624 | 115.13836 | 35881 ft | 397 kts | 317° |
| 2026-05-05 17:02 | 42.87902 | 115.08797 | 35883 ft | 397 kts | 317° |
| 2026-05-05 17:02 | 42.91677 | 115.05186 | 35887 ft | 397 kts | 317° |
| 2026-05-05 17:03 | 42.96213 | 115.00840 | 35900 ft | 398 kts | 317° |
| 2026-05-05 17:03 | 43.00719 | 114.96514 | 35896 ft | 399 kts | 317° |
| 2026-05-05 17:04 | 43.05259 | 114.92150 | 35896 ft | 398 kts | 317° |
| 2026-05-05 17:04 | 43.09786 | 114.87788 | 35901 ft | 398 kts | 317° |
| 2026-05-05 17:05 | 43.14329 | 114.83440 | 35901 ft | 398 kts | 317° |
| 2026-05-05 17:05 | 43.18896 | 114.79188 | 35911 ft | 399 kts | 318° |
| 2026-05-05 17:06 | 43.23507 | 114.74905 | 35917 ft | 399 kts | 317° |
| 2026-05-05 17:06 | 43.28099 | 114.70605 | 35921 ft | 400 kts | 317° |
| 2026-05-05 17:07 | 43.32689 | 114.66290 | 35925 ft | 400 kts | 317° |
| 2026-05-05 17:07 | 43.37255 | 114.61989 | 35929 ft | 400 kts | 317° |
| 2026-05-05 17:08 | 43.41863 | 114.57642 | 35936 ft | 400 kts | 317° |
| 2026-05-05 17:08 | 43.46416 | 114.53340 | 35964 ft | 399 kts | 317° |
| 2026-05-05 17:09 | 43.51012 | 114.48981 | 35940 ft | 402 kts | 317° |
| 2026-05-05 17:09 | 43.55644 | 114.44583 | 35939 ft | 403 kts | 317° |
| 2026-05-05 17:10 | 43.60244 | 114.40213 | 35943 ft | 403 kts | 317° |
| 2026-05-05 17:10 | 43.64876 | 114.35805 | 35942 ft | 403 kts | 317° |
| 2026-05-05 17:11 | 43.69496 | 114.31396 | 35955 ft | 403 kts | 317° |
| 2026-05-05 17:11 | 43.74111 | 114.26980 | 35955 ft | 405 kts | 317° |
| 2026-05-05 17:12 | 43.78733 | 114.22547 | 35956 ft | 408 kts | 317° |
| 2026-05-05 17:12 | 43.83403 | 114.18067 | 35995 ft | 408 kts | 317° |
| 2026-05-05 17:13 | 43.88066 | 114.13587 | 35967 ft | 408 kts | 316° |
| 2026-05-05 17:13 | 43.92737 | 114.09087 | 35970 ft | 408 kts | 316° |
| 2026-05-05 17:14 | 43.97367 | 114.04617 | 35995 ft | 408 kts | 317° |
| 2026-05-05 17:14 | 44.02026 | 114.00107 | 35977 ft | 410 kts | 316° |
| 2026-05-05 17:15 | 44.06727 | 113.95550 | 35983 ft | 411 kts | 316° |
| 2026-05-05 17:15 | 44.11424 | 113.90991 | 35987 ft | 411 kts | 316° |
| 2026-05-05 17:16 | 44.16086 | 113.86455 | 35987 ft | 411 kts | 316° |
| 2026-05-05 17:16 | 44.20784 | 113.81873 | 35995 ft | 411 kts | 316° |
| 2026-05-05 17:17 | 44.25449 | 113.77315 | 35997 ft | 412 kts | 316° |
| 2026-05-05 17:17 | 44.30136 | 113.72725 | 36001 ft | 414 kts | 316° |
| 2026-05-05 17:18 | 44.34880 | 113.68072 | 35999 ft | 415 kts | 316° |
| 2026-05-05 17:18 | 44.39575 | 113.63462 | 36010 ft | 414 kts | 316° |
| 2026-05-05 17:19 | 44.44299 | 113.58810 | 36008 ft | 414 kts | 316° |
| 2026-05-05 17:19 | 44.48997 | 113.54175 | 36046 ft | 415 kts | 316° |
| 2026-05-05 17:20 | 44.53730 | 113.49493 | 36012 ft | 417 kts | 316° |
| 2026-05-05 17:20 | 44.58489 | 113.44776 | 36013 ft | 418 kts | 316° |
| 2026-05-05 17:21 | 44.63225 | 113.40077 | 36014 ft | 418 kts | 316° |
| 2026-05-05 17:22 | 44.70346 | 113.32992 | 36018 ft | 418 kts | 316° |
| 2026-05-05 17:22 | 44.75071 | 113.28277 | 36016 ft | 418 kts | 316° |
| 2026-05-05 17:23 | 44.79828 | 113.23510 | 36015 ft | 418 kts | 315° |
| 2026-05-05 17:23 | 44.84432 | 113.18616 | 36019 ft | 416 kts | 314° |
| 2026-05-05 17:24 | 44.89010 | 113.13627 | 36024 ft | 416 kts | 314° |
| 2026-05-05 17:24 | 44.93610 | 113.08639 | 36027 ft | 416 kts | 314° |
| 2026-05-05 17:25 | 44.98226 | 113.03659 | 36028 ft | 417 kts | 314° |
| 2026-05-05 17:25 | 45.02807 | 112.98717 | 36053 ft | 417 kts | 314° |
| 2026-05-05 17:26 | 45.07435 | 112.93712 | 36031 ft | 420 kts | 314° |
| 2026-05-05 17:26 | 45.12082 | 112.88677 | 36032 ft | 420 kts | 314° |
| 2026-05-05 17:27 | 45.16703 | 112.83660 | 36038 ft | 421 kts | 314° |
| 2026-05-05 17:27 | 45.21356 | 112.78596 | 36042 ft | 421 kts | 314° |
| 2026-05-05 17:28 | 45.26015 | 112.73516 | 36048 ft | 421 kts | 314° |
| 2026-05-05 17:28 | 45.30645 | 112.68456 | 36058 ft | 422 kts | 314° |
| 2026-05-05 17:29 | 45.35315 | 112.63338 | 36048 ft | 424 kts | 314° |
| 2026-05-05 17:29 | 45.40000 | 112.58196 | 36053 ft | 425 kts | 314° |
| 2026-05-05 17:30 | 45.44662 | 112.53069 | 36052 ft | 425 kts | 314° |
| 2026-05-05 17:30 | 45.49344 | 112.47909 | 36063 ft | 425 kts | 314° |
| 2026-05-05 17:31 | 45.54021 | 112.42744 | 36061 ft | 425 kts | 314° |
| 2026-05-05 17:31 | 45.58687 | 112.37576 | 36078 ft | 427 kts | 314° |
| 2026-05-05 17:32 | 45.63410 | 112.32332 | 36067 ft | 429 kts | 314° |
| 2026-05-05 17:32 | 45.68099 | 112.27121 | 36077 ft | 429 kts | 314° |
| 2026-05-05 17:33 | 45.72816 | 112.21865 | 36076 ft | 429 kts | 314° |
| 2026-05-05 17:33 | 45.77536 | 112.16594 | 36083 ft | 429 kts | 314° |
| 2026-05-05 17:34 | 45.82215 | 112.11357 | 36085 ft | 429 kts | 314° |
| 2026-05-05 17:34 | 45.86937 | 112.06058 | 36095 ft | 431 kts | 315° |
| 2026-05-05 17:35 | 45.91664 | 112.00743 | 36098 ft | 431 kts | 315° |
| 2026-05-05 17:35 | 45.96373 | 111.95440 | 36101 ft | 431 kts | 315° |
| 2026-05-05 17:36 | 46.01082 | 111.90124 | 36105 ft | 431 kts | 315° |
| 2026-05-05 17:36 | 46.05808 | 111.84776 | 36112 ft | 431 kts | 315° |
| 2026-05-05 17:37 | 46.10526 | 111.79425 | 36119 ft | 430 kts | 314° |
| 2026-05-05 17:37 | 46.15207 | 111.74102 | 36121 ft | 431 kts | 314° |
| 2026-05-05 17:38 | 46.19928 | 111.68722 | 36129 ft | 432 kts | 314° |
| 2026-05-05 17:38 | 46.24644 | 111.63337 | 36126 ft | 432 kts | 314° |
| 2026-05-05 17:39 | 46.29348 | 111.57951 | 36136 ft | 433 kts | 314° |
| 2026-05-05 17:39 | 46.34087 | 111.52515 | 36139 ft | 434 kts | 314° |
| 2026-05-05 17:40 | 46.38816 | 111.47079 | 36184 ft | 434 kts | 314° |
| 2026-05-05 17:40 | 46.43531 | 111.41643 | 36147 ft | 437 kts | 314° |
| 2026-05-05 17:41 | 46.48302 | 111.36131 | 36170 ft | 440 kts | 314° |
| 2026-05-05 17:41 | 46.53083 | 111.30593 | 36163 ft | 442 kts | 314° |
| 2026-05-05 17:42 | 46.57901 | 111.25004 | 36174 ft | 443 kts | 314° |
| 2026-05-05 17:42 | 46.62715 | 111.19410 | 36178 ft | 442 kts | 314° |
| 2026-05-05 17:43 | 46.67526 | 111.13801 | 36210 ft | 443 kts | 315° |
| 2026-05-05 17:43 | 46.72325 | 111.08189 | 36191 ft | 446 kts | 315° |
| 2026-05-05 17:44 | 46.77173 | 111.02509 | 36196 ft | 446 kts | 315° |
| 2026-05-05 17:44 | 46.82014 | 110.96828 | 36205 ft | 446 kts | 315° |
| 2026-05-05 17:45 | 46.86827 | 110.91165 | 36206 ft | 446 kts | 315° |
| 2026-05-05 17:45 | 46.91675 | 110.85445 | 36215 ft | 446 kts | 315° |
| 2026-05-05 17:46 | 46.96485 | 110.79753 | 36209 ft | 448 kts | 315° |
| 2026-05-05 17:46 | 47.01360 | 110.73972 | 36210 ft | 451 kts | 315° |
| 2026-05-05 17:47 | 47.06226 | 110.68193 | 36207 ft | 451 kts | 315° |
| 2026-05-05 17:47 | 47.11107 | 110.62382 | 36209 ft | 451 kts | 315° |
| 2026-05-05 17:48 | 47.15981 | 110.56562 | 36212 ft | 451 kts | 315° |
| 2026-05-05 17:48 | 47.20824 | 110.50764 | 36224 ft | 451 kts | 315° |
| 2026-05-05 17:49 | 47.25695 | 110.44918 | 36232 ft | 452 kts | 316° |
| 2026-05-05 17:49 | 47.30565 | 110.39059 | 36227 ft | 454 kts | 316° |
| 2026-05-05 17:50 | 47.35475 | 110.33141 | 36230 ft | 454 kts | 315° |
| 2026-05-05 17:50 | 47.39522 | 110.28251 | 36242 ft | 454 kts | 316° |
| 2026-05-05 17:51 | 47.44416 | 110.22324 | 36240 ft | 454 kts | 316° |
| 2026-05-05 17:51 | 47.49302 | 110.16390 | 36251 ft | 454 kts | 316° |
| 2026-05-05 17:52 | 47.54155 | 110.10481 | 36263 ft | 454 kts | 316° |
| 2026-05-05 17:52 | 47.59038 | 110.04522 | 36265 ft | 454 kts | 316° |
| 2026-05-05 17:53 | 47.63893 | 109.98582 | 36276 ft | 455 kts | 316° |
| 2026-05-05 17:53 | 47.68783 | 109.92584 | 36274 ft | 455 kts | 316° |
| 2026-05-05 17:54 | 47.73636 | 109.86619 | 36285 ft | 455 kts | 316° |
| 2026-05-05 17:54 | 47.78527 | 109.80591 | 36277 ft | 455 kts | 316° |
| 2026-05-05 17:55 | 47.83375 | 109.74597 | 36296 ft | 456 kts | 316° |
| 2026-05-05 17:55 | 47.88268 | 109.68536 | 36295 ft | 456 kts | 316° |
| 2026-05-05 17:56 | 47.93153 | 109.62472 | 36307 ft | 456 kts | 316° |
| 2026-05-05 17:56 | 47.98011 | 109.56420 | 36305 ft | 456 kts | 316° |
| 2026-05-05 17:57 | 48.02887 | 109.50330 | 36314 ft | 456 kts | 316° |
| 2026-05-05 17:57 | 48.07725 | 109.44274 | 36313 ft | 455 kts | 316° |
| 2026-05-05 17:58 | 48.12572 | 109.38190 | 36326 ft | 457 kts | 316° |
| 2026-05-05 17:58 | 48.17462 | 109.32039 | 36327 ft | 457 kts | 316° |
| 2026-05-05 17:59 | 48.22318 | 109.25911 | 36334 ft | 457 kts | 316° |
| 2026-05-05 17:59 | 48.27169 | 109.19777 | 36344 ft | 457 kts | 316° |
| 2026-05-05 18:00 | 48.32021 | 109.13624 | 36350 ft | 457 kts | 316° |
| 2026-05-05 18:00 | 48.36884 | 109.07441 | 36356 ft | 457 kts | 316° |
| 2026-05-05 18:01 | 48.41764 | 109.01221 | 36358 ft | 460 kts | 316° |
| 2026-05-05 18:01 | 48.46623 | 108.95014 | 36349 ft | 461 kts | 316° |
| 2026-05-05 18:02 | 48.51515 | 108.88745 | 36359 ft | 461 kts | 317° |
| 2026-05-05 18:02 | 48.56402 | 108.82466 | 36349 ft | 460 kts | 317° |
| 2026-05-05 18:03 | 48.61254 | 108.76219 | 36353 ft | 460 kts | 317° |
| 2026-05-05 18:03 | 48.66133 | 108.69919 | 36373 ft | 460 kts | 317° |
| 2026-05-05 18:04 | 48.70983 | 108.63638 | 36345 ft | 460 kts | 317° |
| 2026-05-05 18:04 | 48.75860 | 108.57305 | 36358 ft | 461 kts | 317° |
| 2026-05-05 18:05 | 48.80697 | 108.51009 | 36356 ft | 461 kts | 317° |
| 2026-05-05 18:05 | 48.85566 | 108.44656 | 36372 ft | 461 kts | 317° |
| 2026-05-05 18:06 | 48.90406 | 108.38324 | 36365 ft | 461 kts | 317° |
| 2026-05-05 18:06 | 48.95280 | 108.31931 | 36406 ft | 461 kts | 317° |
| 2026-05-05 18:07 | 49.00120 | 108.25560 | 36370 ft | 464 kts | 317° |
| 2026-05-05 18:07 | 49.05015 | 108.19102 | 36394 ft | 465 kts | 317° |
| 2026-05-05 18:08 | 49.09903 | 108.12638 | 36400 ft | 465 kts | 317° |
| 2026-05-05 18:08 | 49.14764 | 108.06193 | 36400 ft | 465 kts | 317° |
| 2026-05-05 18:09 | 49.19649 | 107.99698 | 36404 ft | 465 kts | 317° |
| 2026-05-05 18:09 | 49.24512 | 107.93212 | 36432 ft | 465 kts | 317° |
| 2026-05-05 18:10 | 49.29395 | 107.86681 | 36411 ft | 466 kts | 317° |
| 2026-05-05 18:10 | 49.34290 | 107.80119 | 36409 ft | 467 kts | 317° |
| 2026-05-05 18:11 | 49.39148 | 107.73589 | 36415 ft | 467 kts | 317° |
| 2026-05-05 18:11 | 49.44044 | 107.66988 | 36420 ft | 467 kts | 317° |
| 2026-05-05 18:12 | 49.48908 | 107.60413 | 36418 ft | 467 kts | 317° |
| 2026-05-05 18:12 | 49.53793 | 107.53791 | 36439 ft | 467 kts | 317° |
| 2026-05-05 18:13 | 49.58643 | 107.47198 | 36421 ft | 467 kts | 317° |
| 2026-05-05 18:13 | 49.63524 | 107.40545 | 36426 ft | 467 kts | 317° |
| 2026-05-05 18:14 | 49.68385 | 107.33900 | 36417 ft | 467 kts | 318° |
| 2026-05-05 18:14 | 49.73251 | 107.27228 | 36423 ft | 467 kts | 318° |
| 2026-05-05 18:15 | 49.78095 | 107.20572 | 36429 ft | 467 kts | 317° |
| 2026-05-05 18:15 | 49.82936 | 107.13899 | 36419 ft | 467 kts | 317° |
| 2026-05-05 18:16 | 49.87789 | 107.07191 | 36425 ft | 468 kts | 318° |
| 2026-05-05 18:16 | 49.92659 | 107.00440 | 36419 ft | 468 kts | 318° |
| 2026-05-05 18:17 | 49.97493 | 106.93720 | 36418 ft | 468 kts | 318° |
| 2026-05-05 18:17 | 50.02343 | 106.86961 | 36412 ft | 468 kts | 318° |
| 2026-05-05 18:18 | 50.07161 | 106.80225 | 36423 ft | 468 kts | 318° |
| 2026-05-05 18:18 | 50.12008 | 106.73430 | 36420 ft | 468 kts | 318° |
| 2026-05-05 18:19 | 50.16820 | 106.66664 | 36414 ft | 467 kts | 318° |
| 2026-05-05 18:19 | 50.21639 | 106.59871 | 36419 ft | 466 kts | 318° |
| 2026-05-05 18:20 | 50.26434 | 106.53092 | 36415 ft | 466 kts | 318° |
| 2026-05-05 18:20 | 50.31231 | 106.46292 | 36418 ft | 466 kts | 318° |
| 2026-05-05 18:21 | 50.36022 | 106.39436 | 36422 ft | 466 kts | 317° |
| 2026-05-05 18:21 | 50.40764 | 106.32575 | 36417 ft | 465 kts | 317° |
| 2026-05-05 18:22 | 50.45523 | 106.25678 | 36413 ft | 465 kts | 318° |
| 2026-05-05 18:22 | 50.50287 | 106.18766 | 36415 ft | 465 kts | 318° |
| 2026-05-05 18:23 | 50.55005 | 106.11905 | 36431 ft | 465 kts | 317° |
| 2026-05-05 18:23 | 50.59734 | 106.05009 | 36422 ft | 465 kts | 317° |
| 2026-05-05 18:24 | 50.64487 | 105.98058 | 36428 ft | 464 kts | 317° |
| 2026-05-05 18:24 | 50.69224 | 105.91109 | 36427 ft | 464 kts | 317° |
| 2026-05-05 18:25 | 50.73929 | 105.84187 | 36428 ft | 464 kts | 317° |
| 2026-05-05 18:25 | 50.78655 | 105.77214 | 36436 ft | 464 kts | 317° |
| 2026-05-05 18:26 | 50.83351 | 105.70276 | 36431 ft | 464 kts | 317° |
| 2026-05-05 18:26 | 50.88076 | 105.63245 | 36440 ft | 464 kts | 317° |
| 2026-05-05 18:27 | 50.92755 | 105.56257 | 36447 ft | 463 kts | 317° |
| 2026-05-05 18:27 | 50.97446 | 105.49237 | 36446 ft | 463 kts | 317° |
| 2026-05-05 18:28 | 51.04459 | 105.38711 | 36446 ft | 464 kts | 317° |
| 2026-05-05 18:28 | 51.09157 | 105.31635 | 36418 ft | 465 kts | 317° |
| 2026-05-05 18:29 | 51.13829 | 105.24575 | 36435 ft | 465 kts | 317° |
| 2026-05-05 18:29 | 51.18522 | 105.17461 | 36429 ft | 465 kts | 317° |
| 2026-05-05 18:30 | 51.23216 | 105.10328 | 36424 ft | 464 kts | 317° |
| 2026-05-05 18:30 | 51.27872 | 105.03243 | 36420 ft | 465 kts | 317° |
| 2026-05-05 18:31 | 51.32553 | 104.96081 | 36397 ft | 465 kts | 317° |
| 2026-05-05 18:31 | 51.37231 | 104.88901 | 36397 ft | 465 kts | 317° |
| 2026-05-05 18:32 | 51.41873 | 104.81758 | 36398 ft | 465 kts | 317° |
| 2026-05-05 18:32 | 51.46541 | 104.74556 | 36391 ft | 465 kts | 317° |
| 2026-05-05 18:33 | 51.51181 | 104.67378 | 36384 ft | 465 kts | 317° |
| 2026-05-05 18:33 | 51.55837 | 104.60151 | 36384 ft | 465 kts | 317° |
| 2026-05-05 18:34 | 51.60509 | 104.52922 | 36377 ft | 464 kts | 318° |
| 2026-05-05 18:34 | 51.65176 | 104.45810 | 36378 ft | 464 kts | 318° |
| 2026-05-05 18:35 | 51.69879 | 104.38640 | 36370 ft | 465 kts | 318° |
| 2026-05-05 18:35 | 51.74551 | 104.31477 | 36370 ft | 465 kts | 317° |
| 2026-05-05 18:36 | 51.79234 | 104.24264 | 36371 ft | 465 kts | 317° |
| 2026-05-05 18:36 | 51.83923 | 104.17020 | 36371 ft | 465 kts | 317° |
| 2026-05-05 18:37 | 51.88573 | 104.09813 | 36376 ft | 465 kts | 317° |
| 2026-05-05 18:37 | 51.93251 | 104.02542 | 36379 ft | 465 kts | 317° |
| 2026-05-05 18:38 | 51.97111 | 103.96524 | 36383 ft | 466 kts | 317° |
| 2026-05-05 18:38 | 52.01730 | 103.89114 | 36386 ft | 466 kts | 316° |
| 2026-05-05 18:39 | 52.06326 | 103.81632 | 36386 ft | 466 kts | 316° |
| 2026-05-05 18:39 | 52.10890 | 103.74204 | 36389 ft | 465 kts | 316° |
| 2026-05-05 18:40 | 52.15446 | 103.66793 | 36399 ft | 465 kts | 316° |
| 2026-05-05 18:40 | 52.20027 | 103.59327 | 36393 ft | 465 kts | 316° |
| 2026-05-05 18:41 | 52.24604 | 103.51845 | 36408 ft | 466 kts | 316° |
| 2026-05-05 18:41 | 52.29190 | 103.44322 | 36388 ft | 466 kts | 316° |
| 2026-05-05 18:42 | 52.33765 | 103.36794 | 36404 ft | 466 kts | 316° |
| 2026-05-05 18:42 | 52.38321 | 103.29274 | 36403 ft | 466 kts | 316° |
| 2026-05-05 18:43 | 52.42865 | 103.21691 | 36472 ft | 466 kts | 314° |
| 2026-05-05 18:43 | 52.44866 | 103.17598 | 36735 ft | 464 kts | 307° |
| 2026-05-05 18:43 | 52.46730 | 103.13216 | 36993 ft | 463 kts | 306° |
| 2026-05-05 18:44 | 52.48507 | 103.08885 | 37187 ft | 462 kts | 306° |
| 2026-05-05 18:44 | 52.50284 | 103.04460 | 37328 ft | 463 kts | 305° |
| 2026-05-05 18:44 | 52.52043 | 103.00025 | 37512 ft | 462 kts | 305° |
| 2026-05-05 18:44 | 52.53775 | 102.95643 | 37654 ft | 461 kts | 305° |
| 2026-05-05 18:45 | 52.55523 | 102.91215 | 37766 ft | 463 kts | 305° |
| 2026-05-05 18:45 | 52.57278 | 102.86772 | 37846 ft | 464 kts | 305° |
| 2026-05-05 18:45 | 52.59040 | 102.82311 | 37979 ft | 464 kts | 305° |
| 2026-05-05 18:45 | 52.60802 | 102.77847 | 38116 ft | 463 kts | 305° |
| 2026-05-05 18:46 | 52.62557 | 102.73395 | 38269 ft | 463 kts | 304° |
| 2026-05-05 18:46 | 52.64293 | 102.68987 | 38326 ft | 465 kts | 304° |
| 2026-05-05 18:46 | 52.67831 | 102.59982 | 38318 ft | 469 kts | 304° |
| 2026-05-05 18:47 | 52.71368 | 102.50944 | 38327 ft | 468 kts | 304° |
| 2026-05-05 18:47 | 52.74898 | 102.41889 | 38327 ft | 468 kts | 304° |
| 2026-05-05 18:48 | 52.78389 | 102.32903 | 38332 ft | 468 kts | 304° |
| 2026-05-05 18:48 | 52.81906 | 102.23818 | 38326 ft | 468 kts | 304° |
| 2026-05-05 18:49 | 52.85406 | 102.14744 | 38325 ft | 467 kts | 304° |
| 2026-05-05 18:49 | 52.88888 | 102.05685 | 38339 ft | 465 kts | 304° |
| 2026-05-05 18:50 | 52.92355 | 101.96632 | 38331 ft | 467 kts | 304° |
| 2026-05-05 18:50 | 52.95840 | 101.87500 | 38325 ft | 467 kts | 304° |
| 2026-05-05 18:51 | 52.99291 | 101.78423 | 38324 ft | 467 kts | 304° |
| 2026-05-05 18:51 | 53.02761 | 101.69265 | 38322 ft | 467 kts | 304° |
| 2026-05-05 18:52 | 53.06188 | 101.60185 | 38322 ft | 465 kts | 304° |
| 2026-05-05 18:52 | 53.09629 | 101.51037 | 38321 ft | 465 kts | 304° |
| 2026-05-05 18:53 | 53.13056 | 101.41894 | 38317 ft | 465 kts | 304° |
| 2026-05-05 18:53 | 53.16463 | 101.32771 | 38316 ft | 465 kts | 303° |
| 2026-05-05 18:54 | 53.19877 | 101.23594 | 38302 ft | 464 kts | 304° |
| 2026-05-05 18:54 | 53.23257 | 101.14475 | 38318 ft | 464 kts | 303° |
| 2026-05-05 18:55 | 53.26655 | 101.05274 | 38301 ft | 465 kts | 303° |
| 2026-05-05 18:55 | 53.30028 | 100.96123 | 38301 ft | 465 kts | 303° |
| 2026-05-05 18:56 | 53.33419 | 100.86873 | 38294 ft | 465 kts | 303° |
| 2026-05-05 18:56 | 53.36792 | 100.77629 | 38286 ft | 464 kts | 303° |
| 2026-05-05 18:57 | 53.40134 | 100.68443 | 38296 ft | 464 kts | 303° |
| 2026-05-05 18:57 | 53.43496 | 100.59169 | 38279 ft | 464 kts | 303° |
| 2026-05-05 18:58 | 53.46828 | 100.49949 | 38277 ft | 464 kts | 303° |
| 2026-05-05 18:58 | 53.50168 | 100.40666 | 38271 ft | 464 kts | 303° |
| 2026-05-05 18:59 | 53.53500 | 100.31374 | 38278 ft | 464 kts | 303° |
| 2026-05-05 18:59 | 53.56807 | 100.22117 | 38277 ft | 463 kts | 303° |
| 2026-05-05 19:00 | 53.60124 | 100.12798 | 38278 ft | 463 kts | 303° |
| 2026-05-05 19:00 | 53.63418 | 100.03508 | 38274 ft | 463 kts | 303° |
| 2026-05-05 19:01 | 53.66716 | 99.94173 | 38281 ft | 463 kts | 303° |
| 2026-05-05 19:01 | 53.69996 | 99.84851 | 38278 ft | 463 kts | 303° |
| 2026-05-05 19:02 | 53.73286 | 99.75468 | 38288 ft | 463 kts | 303° |
| 2026-05-05 19:02 | 53.76546 | 99.66136 | 38283 ft | 463 kts | 302° |
| 2026-05-05 19:03 | 53.79824 | 99.56716 | 38293 ft | 463 kts | 302° |
| 2026-05-05 19:03 | 53.83082 | 99.47315 | 38293 ft | 463 kts | 302° |
| 2026-05-05 19:04 | 53.86340 | 99.37882 | 38287 ft | 462 kts | 302° |
| 2026-05-05 19:04 | 53.89557 | 99.28528 | 38294 ft | 461 kts | 302° |
| 2026-05-05 19:05 | 53.92793 | 99.19087 | 38284 ft | 463 kts | 302° |
| 2026-05-05 19:05 | 53.96011 | 99.09660 | 38287 ft | 463 kts | 302° |
| 2026-05-05 19:06 | 53.99237 | 99.00174 | 38288 ft | 463 kts | 302° |
| 2026-05-05 19:06 | 54.02437 | 98.90728 | 38287 ft | 462 kts | 302° |
| 2026-05-05 19:07 | 54.05636 | 98.81250 | 38287 ft | 461 kts | 302° |
| 2026-05-05 19:07 | 54.08812 | 98.71808 | 38288 ft | 461 kts | 302° |
| 2026-05-05 19:08 | 54.11993 | 98.62305 | 38276 ft | 461 kts | 302° |
| 2026-05-05 19:08 | 54.15169 | 98.52780 | 38276 ft | 461 kts | 302° |
| 2026-05-05 19:09 | 54.18317 | 98.43308 | 38257 ft | 460 kts | 301° |
| 2026-05-05 19:09 | 54.21469 | 98.33786 | 38272 ft | 459 kts | 301° |
| 2026-05-05 19:10 | 54.24599 | 98.24294 | 38254 ft | 460 kts | 301° |
| 2026-05-05 19:10 | 54.27744 | 98.14718 | 38255 ft | 460 kts | 301° |
| 2026-05-05 19:11 | 54.30853 | 98.05216 | 38248 ft | 461 kts | 301° |
| 2026-05-05 19:11 | 54.33978 | 97.95628 | 38245 ft | 460 kts | 301° |
| 2026-05-05 19:12 | 54.37101 | 97.86051 | 38259 ft | 459 kts | 301° |
| 2026-05-05 19:12 | 54.40191 | 97.76551 | 38240 ft | 459 kts | 301° |
| 2026-05-05 19:13 | 54.43302 | 97.66953 | 38237 ft | 459 kts | 301° |
| 2026-05-05 19:13 | 54.46403 | 97.57343 | 38236 ft | 459 kts | 301° |
| 2026-05-05 19:14 | 54.49474 | 97.47787 | 38228 ft | 458 kts | 301° |
| 2026-05-05 19:14 | 54.52550 | 97.38176 | 38230 ft | 456 kts | 301° |
| 2026-05-05 19:15 | 54.55594 | 97.28631 | 38227 ft | 457 kts | 301° |
| 2026-05-05 19:15 | 54.58660 | 97.18980 | 38230 ft | 458 kts | 301° |
| 2026-05-05 19:16 | 54.61699 | 97.09371 | 38219 ft | 458 kts | 300° |
| 2026-05-05 19:16 | 54.64742 | 96.99711 | 38204 ft | 458 kts | 300° |
| 2026-05-05 19:17 | 54.67779 | 96.90029 | 38207 ft | 456 kts | 300° |
| 2026-05-05 19:17 | 54.70781 | 96.80427 | 38210 ft | 455 kts | 300° |
| 2026-05-05 19:18 | 54.73790 | 96.70761 | 38206 ft | 455 kts | 300° |
| 2026-05-05 19:18 | 54.76763 | 96.61125 | 38204 ft | 456 kts | 299° |
| 2026-05-05 19:19 | 54.79665 | 96.51329 | 38198 ft | 456 kts | 299° |
| 2026-05-05 19:19 | 54.82523 | 96.41582 | 38189 ft | 455 kts | 299° |
| 2026-05-05 19:20 | 54.85401 | 96.31787 | 38195 ft | 454 kts | 299° |
| 2026-05-05 19:20 | 54.88260 | 96.22051 | 38187 ft | 455 kts | 299° |
| 2026-05-05 19:21 | 54.91132 | 96.12237 | 38175 ft | 455 kts | 299° |
| 2026-05-05 19:21 | 54.93993 | 96.02416 | 38172 ft | 455 kts | 299° |
| 2026-05-05 19:22 | 54.96826 | 95.92649 | 38174 ft | 454 kts | 299° |
| 2026-05-05 19:22 | 54.99660 | 95.82833 | 38171 ft | 453 kts | 299° |
| 2026-05-05 19:23 | 55.02481 | 95.73027 | 38163 ft | 453 kts | 299° |
| 2026-05-05 19:23 | 55.05300 | 95.63184 | 38147 ft | 453 kts | 298° |
| 2026-05-05 19:24 | 55.08113 | 95.53322 | 38146 ft | 453 kts | 298° |
| 2026-05-05 19:24 | 55.10907 | 95.43484 | 38135 ft | 453 kts | 298° |
| 2026-05-05 19:25 | 55.13676 | 95.33690 | 38146 ft | 451 kts | 298° |
| 2026-05-05 19:25 | 55.15981 | 95.25510 | 38145 ft | 451 kts | 298° |
| 2026-05-05 19:26 | 55.19209 | 95.14005 | 38137 ft | 452 kts | 298° |
| 2026-05-05 19:26 | 55.21513 | 95.05758 | 38129 ft | 453 kts | 298° |
| 2026-05-05 19:27 | 55.24275 | 94.95827 | 38132 ft | 453 kts | 298° |
| 2026-05-05 19:27 | 55.27035 | 94.85887 | 38132 ft | 452 kts | 299° |
| 2026-05-05 19:28 | 55.30108 | 94.76336 | 38114 ft | 451 kts | 303° |
| 2026-05-05 19:28 | 55.33389 | 94.66886 | 38113 ft | 451 kts | 303° |
| 2026-05-05 19:29 | 55.36591 | 94.57477 | 38104 ft | 451 kts | 302° |
| 2026-05-05 19:29 | 55.39769 | 94.47915 | 38100 ft | 451 kts | 302° |
| 2026-05-05 19:30 | 55.42899 | 94.38395 | 38094 ft | 450 kts | 302° |
| 2026-05-05 19:30 | 55.46028 | 94.28833 | 38103 ft | 449 kts | 302° |
| 2026-05-05 19:31 | 55.49151 | 94.19263 | 38088 ft | 450 kts | 302° |
| 2026-05-05 19:31 | 55.52253 | 94.09727 | 38085 ft | 450 kts | 302° |
| 2026-05-05 19:32 | 55.55372 | 94.00101 | 38082 ft | 450 kts | 301° |
| 2026-05-05 19:32 | 55.58475 | 93.90485 | 38045 ft | 450 kts | 301° |
| 2026-05-05 19:33 | 55.61544 | 93.80931 | 38084 ft | 448 kts | 301° |
| 2026-05-05 19:33 | 55.64616 | 93.71331 | 38075 ft | 447 kts | 301° |
| 2026-05-05 19:34 | 55.67681 | 93.61717 | 38075 ft | 447 kts | 301° |
| 2026-05-05 19:35 | 55.72246 | 93.47327 | 38063 ft | 447 kts | 301° |
| 2026-05-05 19:35 | 55.75276 | 93.37732 | 38067 ft | 448 kts | 301° |
| 2026-05-05 19:36 | 55.78274 | 93.28016 | 38061 ft | 447 kts | 300° |
| 2026-05-05 19:36 | 55.81232 | 93.18278 | 38059 ft | 446 kts | 300° |
| 2026-05-05 19:37 | 55.84161 | 93.08622 | 38054 ft | 446 kts | 300° |
| 2026-05-05 19:37 | 55.87110 | 92.98889 | 38048 ft | 446 kts | 300° |
| 2026-05-05 19:38 | 55.90055 | 92.89142 | 38046 ft | 446 kts | 300° |
| 2026-05-05 19:38 | 55.92989 | 92.79390 | 38037 ft | 446 kts | 300° |
| 2026-05-05 19:39 | 55.95897 | 92.69681 | 38043 ft | 445 kts | 300° |
| 2026-05-05 19:39 | 55.98813 | 92.59908 | 38042 ft | 445 kts | 300° |
| 2026-05-05 19:40 | 56.01720 | 92.50126 | 38044 ft | 445 kts | 300° |
| 2026-05-05 19:40 | 56.04626 | 92.40339 | 38052 ft | 446 kts | 300° |
| 2026-05-05 19:41 | 56.07512 | 92.30558 | 38049 ft | 447 kts | 299° |
| 2026-05-05 19:41 | 56.10408 | 92.20702 | 38038 ft | 445 kts | 299° |
| 2026-05-05 19:42 | 56.13278 | 92.10895 | 38034 ft | 444 kts | 299° |
| 2026-05-05 19:42 | 56.16133 | 92.01104 | 38034 ft | 444 kts | 299° |
| 2026-05-05 19:43 | 56.18991 | 91.91261 | 38028 ft | 444 kts | 299° |
| 2026-05-05 19:43 | 56.21825 | 91.81457 | 38024 ft | 444 kts | 299° |
| 2026-05-05 19:44 | 56.24672 | 91.71567 | 38017 ft | 444 kts | 299° |
| 2026-05-05 19:44 | 56.27494 | 91.61719 | 38013 ft | 441 kts | 298° |
| 2026-05-05 19:45 | 56.30278 | 91.51965 | 38025 ft | 439 kts | 298° |
| 2026-05-05 19:45 | 56.33068 | 91.42151 | 38023 ft | 440 kts | 298° |
| 2026-05-05 19:46 | 56.35852 | 91.32317 | 38019 ft | 440 kts | 298° |
| 2026-05-05 19:46 | 56.38615 | 91.22513 | 38017 ft | 440 kts | 298° |
| 2026-05-05 19:47 | 56.41388 | 91.12633 | 37999 ft | 439 kts | 298° |
| 2026-05-05 19:47 | 56.44127 | 91.02829 | 38025 ft | 438 kts | 298° |
| 2026-05-05 19:48 | 56.46867 | 90.92979 | 38006 ft | 438 kts | 298° |
| 2026-05-05 19:48 | 56.49599 | 90.83120 | 38019 ft | 438 kts | 298° |
| 2026-05-05 19:49 | 56.52320 | 90.73258 | 38018 ft | 438 kts | 298° |
| 2026-05-05 19:49 | 56.55025 | 90.63409 | 37999 ft | 438 kts | 298° |
| 2026-05-05 19:50 | 56.57733 | 90.53509 | 38004 ft | 437 kts | 297° |
| 2026-05-05 19:50 | 56.60414 | 90.43663 | 38010 ft | 436 kts | 297° |
| 2026-05-05 19:51 | 56.63099 | 90.33759 | 38005 ft | 436 kts | 297° |
| 2026-05-05 19:51 | 56.65762 | 90.23892 | 38005 ft | 437 kts | 297° |
| 2026-05-05 19:52 | 56.68435 | 90.13948 | 38005 ft | 437 kts | 297° |
| 2026-05-05 19:52 | 56.71102 | 90.03983 | 38011 ft | 437 kts | 297° |
| 2026-05-05 19:53 | 56.73740 | 89.94081 | 37995 ft | 437 kts | 297° |
| 2026-05-05 19:53 | 56.76389 | 89.84097 | 38004 ft | 437 kts | 297° |
| 2026-05-05 19:54 | 56.79033 | 89.74083 | 38006 ft | 437 kts | 296° |
| 2026-05-05 19:54 | 56.81652 | 89.64121 | 38004 ft | 437 kts | 296° |
| 2026-05-05 19:55 | 56.84282 | 89.54075 | 38031 ft | 437 kts | 296° |
| 2026-05-05 19:55 | 56.86886 | 89.44082 | 38004 ft | 437 kts | 296° |
| 2026-05-05 19:56 | 56.89500 | 89.34004 | 38004 ft | 438 kts | 296° |
| 2026-05-05 19:56 | 56.92091 | 89.23974 | 38005 ft | 438 kts | 296° |
| 2026-05-05 19:57 | 56.94683 | 89.13891 | 37996 ft | 438 kts | 296° |
| 2026-05-05 19:57 | 56.97272 | 89.03776 | 37998 ft | 437 kts | 296° |
| 2026-05-05 19:58 | 56.99836 | 88.93713 | 38002 ft | 438 kts | 296° |
| 2026-05-05 19:58 | 57.02409 | 88.83566 | 37995 ft | 438 kts | 296° |
| 2026-05-05 19:59 | 57.04974 | 88.73409 | 37999 ft | 437 kts | 296° |
| 2026-05-05 19:59 | 57.07514 | 88.63301 | 37993 ft | 437 kts | 296° |
| 2026-05-05 20:00 | 57.10062 | 88.53115 | 37995 ft | 437 kts | 295° |
| 2026-05-05 20:00 | 57.12582 | 88.42995 | 37997 ft | 437 kts | 295° |
| 2026-05-05 20:01 | 57.15112 | 88.32791 | 37995 ft | 437 kts | 295° |
| 2026-05-05 20:01 | 57.17635 | 88.22581 | 37994 ft | 437 kts | 295° |
| 2026-05-05 20:02 | 57.20127 | 88.12412 | 37990 ft | 436 kts | 295° |
| 2026-05-05 20:02 | 57.22623 | 88.02169 | 37989 ft | 436 kts | 295° |
| 2026-05-05 20:03 | 57.25107 | 87.91943 | 37987 ft | 436 kts | 295° |
| 2026-05-05 20:03 | 57.27583 | 87.81705 | 37983 ft | 436 kts | 295° |
| 2026-05-05 20:04 | 57.30036 | 87.71516 | 37983 ft | 436 kts | 295° |
| 2026-05-05 20:04 | 57.32505 | 87.61214 | 37954 ft | 436 kts | 294° |
| 2026-05-05 20:05 | 57.34941 | 87.50999 | 37980 ft | 435 kts | 294° |
| 2026-05-05 20:05 | 57.37381 | 87.40715 | 37978 ft | 436 kts | 294° |
| 2026-05-05 20:06 | 57.39803 | 87.30462 | 37973 ft | 436 kts | 294° |
| 2026-05-05 20:06 | 57.42232 | 87.20128 | 37975 ft | 436 kts | 294° |
| 2026-05-05 20:07 | 57.44643 | 87.09822 | 37970 ft | 436 kts | 294° |
| 2026-05-05 20:07 | 57.47053 | 86.99472 | 37948 ft | 436 kts | 294° |
| 2026-05-05 20:08 | 57.49454 | 86.89112 | 37964 ft | 435 kts | 293° |
| 2026-05-05 20:08 | 57.51844 | 86.78744 | 37967 ft | 435 kts | 293° |
| 2026-05-05 20:09 | 57.54210 | 86.68432 | 37970 ft | 435 kts | 293° |
| 2026-05-05 20:09 | 57.56584 | 86.58035 | 37963 ft | 435 kts | 293° |
| 2026-05-05 20:10 | 57.58945 | 86.47647 | 37958 ft | 435 kts | 293° |
| 2026-05-05 20:10 | 57.61289 | 86.37281 | 37940 ft | 435 kts | 292° |
| 2026-05-05 20:11 | 57.63628 | 86.26885 | 37958 ft | 436 kts | 292° |
| 2026-05-05 20:11 | 57.65578 | 86.18178 | 37955 ft | 435 kts | 292° |
| 2026-05-05 20:12 | 57.68291 | 86.06005 | 37949 ft | 435 kts | 292° |
| 2026-05-05 20:12 | 57.70608 | 85.95552 | 37949 ft | 435 kts | 292° |
| 2026-05-05 20:13 | 57.72530 | 85.86839 | 37944 ft | 435 kts | 292° |
| 2026-05-05 20:13 | 57.74839 | 85.76328 | 37945 ft | 435 kts | 292° |
| 2026-05-05 20:14 | 57.77122 | 85.65883 | 37949 ft | 435 kts | 292° |
| 2026-05-05 20:14 | 57.79407 | 85.55376 | 37945 ft | 435 kts | 291° |
| 2026-05-05 20:15 | 57.81685 | 85.44843 | 37944 ft | 435 kts | 291° |
| 2026-05-05 20:15 | 57.83942 | 85.34358 | 37942 ft | 435 kts | 291° |
| 2026-05-05 20:16 | 57.86208 | 85.23777 | 37939 ft | 436 kts | 291° |
| 2026-05-05 20:16 | 57.88452 | 85.13242 | 37941 ft | 436 kts | 291° |
| 2026-05-05 20:17 | 57.90696 | 85.02658 | 37940 ft | 437 kts | 291° |
| 2026-05-05 20:17 | 57.92945 | 84.91989 | 37942 ft | 437 kts | 291° |
| 2026-05-05 20:18 | 57.95180 | 84.81333 | 37936 ft | 437 kts | 291° |
| 2026-05-05 20:18 | 57.97393 | 84.70730 | 37938 ft | 437 kts | 291° |
| 2026-05-05 20:19 | 57.99613 | 84.60031 | 37940 ft | 437 kts | 291° |
| 2026-05-05 20:19 | 58.01812 | 84.49381 | 37938 ft | 437 kts | 290° |
| 2026-05-05 20:20 | 58.04018 | 84.38641 | 37938 ft | 437 kts | 290° |
| 2026-05-05 20:20 | 58.06201 | 84.27953 | 37935 ft | 438 kts | 290° |
| 2026-05-05 20:21 | 58.08392 | 84.17169 | 37944 ft | 438 kts | 290° |
| 2026-05-05 20:21 | 58.10562 | 84.06437 | 37945 ft | 439 kts | 290° |
| 2026-05-05 20:22 | 58.12740 | 83.95602 | 37939 ft | 439 kts | 290° |
| 2026-05-05 20:22 | 58.14904 | 83.84779 | 37941 ft | 439 kts | 290° |
| 2026-05-05 20:23 | 58.17048 | 83.73999 | 37940 ft | 440 kts | 290° |
| 2026-05-05 20:23 | 58.19196 | 83.63137 | 37942 ft | 440 kts | 290° |
| 2026-05-05 20:24 | 58.21336 | 83.52252 | 37943 ft | 440 kts | 290° |
| 2026-05-05 20:24 | 58.23454 | 83.41421 | 37944 ft | 440 kts | 289° |
| 2026-05-05 20:25 | 58.25580 | 83.30493 | 37943 ft | 440 kts | 289° |
| 2026-05-05 20:25 | 58.27677 | 83.19649 | 37945 ft | 440 kts | 289° |
| 2026-05-05 20:26 | 58.29778 | 83.08729 | 37967 ft | 440 kts | 289° |
| 2026-05-05 20:26 | 58.31872 | 82.97778 | 37941 ft | 439 kts | 289° |
| 2026-05-05 20:27 | 58.34004 | 82.86946 | 37945 ft | 439 kts | 291° |
| 2026-05-05 20:27 | 58.36430 | 82.76204 | 37941 ft | 440 kts | 293° |
| 2026-05-05 20:28 | 58.38870 | 82.65566 | 37943 ft | 440 kts | 292° |
| 2026-05-05 20:28 | 58.41273 | 82.54828 | 37942 ft | 440 kts | 292° |
| 2026-05-05 20:29 | 58.43630 | 82.44106 | 37943 ft | 440 kts | 291° |
| 2026-05-05 20:29 | 58.45987 | 82.33296 | 37939 ft | 440 kts | 291° |
| 2026-05-05 20:30 | 58.48335 | 82.22479 | 37937 ft | 440 kts | 291° |
| 2026-05-05 20:30 | 58.50659 | 82.11725 | 37940 ft | 440 kts | 291° |
| 2026-05-05 20:31 | 58.52990 | 82.00887 | 37938 ft | 440 kts | 291° |
| 2026-05-05 20:31 | 58.55299 | 81.90091 | 37938 ft | 439 kts | 291° |
| 2026-05-05 20:32 | 58.57608 | 81.79239 | 37936 ft | 440 kts | 291° |
| 2026-05-05 20:32 | 58.59902 | 81.68401 | 37937 ft | 440 kts | 291° |
| 2026-05-05 20:33 | 58.62202 | 81.57477 | 37940 ft | 440 kts | 291° |
| 2026-05-05 20:33 | 58.64472 | 81.46636 | 37938 ft | 440 kts | 290° |
| 2026-05-05 20:34 | 58.66749 | 81.35704 | 37929 ft | 440 kts | 290° |
| 2026-05-05 20:34 | 58.68998 | 81.24850 | 37934 ft | 439 kts | 290° |
| 2026-05-05 20:35 | 58.71256 | 81.13900 | 37926 ft | 439 kts | 290° |
| 2026-05-05 20:35 | 58.73520 | 81.02931 | 37959 ft | 440 kts | 290° |
| 2026-05-05 20:36 | 58.75776 | 80.91966 | 37931 ft | 442 kts | 290° |
| 2026-05-05 20:36 | 58.78019 | 80.80996 | 37934 ft | 442 kts | 290° |
| 2026-05-05 20:37 | 58.80275 | 80.69899 | 37934 ft | 442 kts | 290° |
| 2026-05-05 20:37 | 58.82501 | 80.58887 | 37933 ft | 442 kts | 290° |
| 2026-05-05 20:38 | 58.84725 | 80.47824 | 37926 ft | 442 kts | 290° |
| 2026-05-05 20:38 | 58.86953 | 80.36684 | 37938 ft | 443 kts | 289° |
| 2026-05-05 20:39 | 58.89164 | 80.25543 | 37920 ft | 443 kts | 289° |
| 2026-05-05 20:39 | 58.91337 | 80.14423 | 37933 ft | 443 kts | 289° |
| 2026-05-05 20:40 | 58.93496 | 80.03302 | 37934 ft | 443 kts | 289° |
| 2026-05-05 20:40 | 58.95666 | 79.92079 | 37937 ft | 443 kts | 289° |
| 2026-05-05 20:41 | 58.97808 | 79.80948 | 37939 ft | 443 kts | 289° |
| 2026-05-05 20:41 | 58.99962 | 79.69691 | 37934 ft | 444 kts | 288° |
| 2026-05-05 20:42 | 59.02094 | 79.58486 | 37932 ft | 445 kts | 288° |
| 2026-05-05 20:42 | 59.04234 | 79.47172 | 37927 ft | 445 kts | 288° |
| 2026-05-05 20:43 | 59.06360 | 79.35865 | 37935 ft | 445 kts | 288° |
| 2026-05-05 20:43 | 59.08479 | 79.24531 | 37931 ft | 445 kts | 288° |
| 2026-05-05 20:44 | 59.10578 | 79.13235 | 37935 ft | 445 kts | 288° |
| 2026-05-05 20:44 | 59.12665 | 79.01941 | 37937 ft | 446 kts | 288° |
| 2026-05-05 20:45 | 59.15811 | 78.84775 | 37935 ft | 450 kts | 288° |
| 2026-05-05 20:45 | 59.17900 | 78.73297 | 37936 ft | 451 kts | 288° |
| 2026-05-05 20:46 | 59.19992 | 78.61731 | 37932 ft | 451 kts | 288° |
| 2026-05-05 20:46 | 59.22057 | 78.50243 | 37938 ft | 451 kts | 287° |
| 2026-05-05 20:47 | 59.24129 | 78.38648 | 37936 ft | 451 kts | 287° |
| 2026-05-05 20:47 | 59.26179 | 78.27099 | 37928 ft | 452 kts | 287° |
| 2026-05-05 20:48 | 59.28236 | 78.15442 | 37948 ft | 453 kts | 287° |
| 2026-05-05 20:48 | 59.30271 | 78.03840 | 37931 ft | 453 kts | 287° |
| 2026-05-05 20:49 | 59.32310 | 77.92141 | 37925 ft | 453 kts | 287° |
| 2026-05-05 20:49 | 59.34324 | 77.80503 | 37934 ft | 454 kts | 287° |
| 2026-05-05 20:50 | 59.36006 | 77.70732 | 37931 ft | 454 kts | 287° |
| 2026-05-05 20:50 | 59.38352 | 77.57020 | 37930 ft | 455 kts | 287° |
| 2026-05-05 20:51 | 59.40359 | 77.45203 | 37928 ft | 456 kts | 287° |
| 2026-05-05 20:51 | 59.42346 | 77.33427 | 37928 ft | 456 kts | 287° |
| 2026-05-05 20:52 | 59.44337 | 77.21553 | 37933 ft | 456 kts | 287° |
| 2026-05-05 20:52 | 59.46317 | 77.09666 | 37927 ft | 456 kts | 287° |
| 2026-05-05 20:53 | 59.48271 | 76.97857 | 37927 ft | 456 kts | 286° |
| 2026-05-05 20:53 | 59.50245 | 76.85952 | 37921 ft | 457 kts | 287° |
| 2026-05-05 20:54 | 59.52225 | 76.74015 | 37925 ft | 459 kts | 287° |
| 2026-05-05 20:54 | 59.54191 | 76.62083 | 37928 ft | 460 kts | 287° |
| 2026-05-05 20:55 | 59.56158 | 76.50056 | 37924 ft | 460 kts | 287° |
| 2026-05-05 20:55 | 59.58090 | 76.38085 | 37926 ft | 460 kts | 286° |
| 2026-05-05 20:56 | 59.60005 | 76.26009 | 37925 ft | 460 kts | 286° |
| 2026-05-05 20:56 | 59.61896 | 76.14009 | 37924 ft | 460 kts | 286° |
| 2026-05-05 20:57 | 59.63793 | 76.01908 | 37928 ft | 460 kts | 286° |
| 2026-05-05 20:57 | 59.65677 | 75.89813 | 37930 ft | 460 kts | 286° |
| 2026-05-05 20:58 | 59.67552 | 75.77698 | 37927 ft | 460 kts | 286° |
| 2026-05-05 20:58 | 59.69409 | 75.65600 | 37938 ft | 460 kts | 286° |
| 2026-05-05 20:59 | 59.71256 | 75.53495 | 37934 ft | 461 kts | 286° |
| 2026-05-05 20:59 | 59.73101 | 75.41313 | 37937 ft | 461 kts | 286° |
| 2026-05-05 21:00 | 59.74639 | 75.31134 | 37933 ft | 462 kts | 287° |
| 2026-05-05 21:00 | 59.76917 | 75.19237 | 37936 ft | 463 kts | 291° |
| 2026-05-05 21:01 | 59.79335 | 75.07376 | 37936 ft | 463 kts | 291° |
| 2026-05-05 21:01 | 59.81771 | 74.95501 | 37937 ft | 463 kts | 291° |
| 2026-05-05 21:02 | 59.84189 | 74.83623 | 37936 ft | 463 kts | 291° |
| 2026-05-05 21:02 | 59.86593 | 74.71712 | 37957 ft | 463 kts | 291° |
| 2026-05-05 21:03 | 59.88969 | 74.59856 | 37942 ft | 463 kts | 291° |
| 2026-05-05 21:03 | 59.91352 | 74.47898 | 37935 ft | 464 kts | 291° |
| 2026-05-05 21:04 | 59.93723 | 74.35925 | 37943 ft | 464 kts | 291° |
| 2026-05-05 21:04 | 59.96081 | 74.23951 | 37938 ft | 464 kts | 291° |
| 2026-05-05 21:05 | 59.98417 | 74.12014 | 37933 ft | 463 kts | 290° |
| 2026-05-05 21:05 | 60.00757 | 73.99989 | 37937 ft | 464 kts | 290° |
| 2026-05-05 21:06 | 60.03083 | 73.87958 | 37935 ft | 464 kts | 290° |
| 2026-05-05 21:06 | 60.05401 | 73.75894 | 37937 ft | 465 kts | 290° |
| 2026-05-05 21:07 | 60.07707 | 73.63820 | 37935 ft | 467 kts | 290° |
| 2026-05-05 21:07 | 60.10026 | 73.51600 | 37935 ft | 468 kts | 290° |
| 2026-05-05 21:08 | 60.12328 | 73.39397 | 37936 ft | 468 kts | 290° |
| 2026-05-05 21:08 | 60.14613 | 73.27206 | 37936 ft | 468 kts | 290° |
| 2026-05-05 21:09 | 60.16895 | 73.14955 | 37933 ft | 468 kts | 289° |
| 2026-05-05 21:09 | 60.19170 | 73.02663 | 37936 ft | 468 kts | 289° |
| 2026-05-05 21:10 | 60.21419 | 72.90433 | 37930 ft | 469 kts | 289° |
| 2026-05-05 21:10 | 60.23675 | 72.78084 | 37928 ft | 468 kts | 290° |
| 2026-05-05 21:11 | 60.25903 | 72.65816 | 37927 ft | 468 kts | 289° |
| 2026-05-05 21:11 | 60.28131 | 72.53465 | 37925 ft | 468 kts | 289° |
| 2026-05-05 21:12 | 60.30335 | 72.41168 | 37925 ft | 468 kts | 289° |
| 2026-05-05 21:12 | 60.32538 | 72.28791 | 37910 ft | 468 kts | 289° |
| 2026-05-05 21:13 | 60.34731 | 72.16396 | 37924 ft | 468 kts | 289° |
| 2026-05-05 21:13 | 60.36897 | 72.04067 | 37925 ft | 467 kts | 289° |
| 2026-05-05 21:14 | 60.39064 | 71.91654 | 37922 ft | 467 kts | 289° |
| 2026-05-05 21:14 | 60.41217 | 71.79234 | 37921 ft | 465 kts | 289° |
| 2026-05-05 21:15 | 60.43331 | 71.66959 | 37925 ft | 463 kts | 289° |
| 2026-05-05 21:15 | 60.45443 | 71.54612 | 37922 ft | 463 kts | 289° |
| 2026-05-05 21:16 | 60.47534 | 71.42313 | 37920 ft | 463 kts | 289° |
| 2026-05-05 21:16 | 60.49625 | 71.29924 | 37922 ft | 463 kts | 289° |
| 2026-05-05 21:17 | 60.51693 | 71.17592 | 37919 ft | 463 kts | 288° |
| 2026-05-05 21:17 | 60.53756 | 71.05202 | 37919 ft | 463 kts | 288° |
| 2026-05-05 21:18 | 60.55812 | 70.92771 | 37911 ft | 463 kts | 288° |
| 2026-05-05 21:18 | 60.57841 | 70.80420 | 37908 ft | 461 kts | 288° |
| 2026-05-05 21:19 | 60.59858 | 70.68049 | 37909 ft | 460 kts | 288° |
| 2026-05-05 21:19 | 60.61870 | 70.55633 | 37903 ft | 460 kts | 288° |
| 2026-05-05 21:20 | 60.64496 | 70.43828 | 37906 ft | 461 kts | 299° |
| 2026-05-05 21:20 | 60.67811 | 70.32630 | 37903 ft | 461 kts | 301° |
| 2026-05-05 21:21 | 60.71218 | 70.21563 | 37889 ft | 461 kts | 301° |
| 2026-05-05 21:21 | 60.74625 | 70.10481 | 37889 ft | 461 kts | 301° |
| 2026-05-05 21:22 | 60.78024 | 69.99313 | 37889 ft | 461 kts | 301° |
| 2026-05-05 21:22 | 60.81409 | 69.88108 | 37875 ft | 461 kts | 300° |
| 2026-05-05 21:23 | 60.84713 | 69.76918 | 37876 ft | 461 kts | 300° |
| 2026-05-05 21:23 | 60.88018 | 69.65593 | 37870 ft | 461 kts | 300° |
| 2026-05-05 21:24 | 60.91305 | 69.54309 | 37870 ft | 461 kts | 300° |
| 2026-05-05 21:24 | 60.94604 | 69.42950 | 37865 ft | 462 kts | 300° |
| 2026-05-05 21:25 | 60.97872 | 69.31655 | 37856 ft | 460 kts | 299° |
| 2026-05-05 21:25 | 61.01126 | 69.20291 | 37853 ft | 459 kts | 297° |
| 2026-05-05 21:26 | 61.03455 | 69.08077 | 37857 ft | 457 kts | 282° |
| 2026-05-05 21:26 | 61.04544 | 68.95217 | 37856 ft | 457 kts | 278° |
| 2026-05-05 21:27 | 61.05398 | 68.82157 | 37855 ft | 458 kts | 277° |
| 2026-05-05 21:27 | 61.06205 | 68.69196 | 37855 ft | 458 kts | 277° |
| 2026-05-05 21:28 | 61.07023 | 68.56147 | 37851 ft | 457 kts | 277° |
| 2026-05-05 21:28 | 61.07844 | 68.43083 | 37848 ft | 457 kts | 277° |
| 2026-05-05 21:29 | 61.08650 | 68.30099 | 37858 ft | 457 kts | 277° |
| 2026-05-05 21:29 | 61.09451 | 68.17050 | 37848 ft | 457 kts | 277° |
| 2026-05-05 21:30 | 61.10226 | 68.04094 | 37842 ft | 457 kts | 277° |
| 2026-05-05 21:30 | 61.10991 | 67.90966 | 37842 ft | 457 kts | 277° |
| 2026-05-05 21:31 | 61.11739 | 67.77955 | 37840 ft | 457 kts | 276° |
| 2026-05-05 21:31 | 61.12481 | 67.64853 | 37840 ft | 457 kts | 276° |
| 2026-05-05 21:32 | 61.13205 | 67.51840 | 37840 ft | 457 kts | 276° |
| 2026-05-05 21:32 | 61.13922 | 67.38721 | 37837 ft | 457 kts | 276° |
| 2026-05-05 21:33 | 61.14624 | 67.25651 | 37838 ft | 457 kts | 276° |
| 2026-05-05 21:33 | 61.15312 | 67.12609 | 37840 ft | 458 kts | 276° |
| 2026-05-05 21:34 | 61.15994 | 66.99414 | 37837 ft | 459 kts | 276° |
| 2026-05-05 21:34 | 61.16659 | 66.86322 | 37829 ft | 459 kts | 276° |
| 2026-05-05 21:35 | 61.17311 | 66.73204 | 37829 ft | 459 kts | 276° |
| 2026-05-05 21:35 | 61.17954 | 66.60022 | 37829 ft | 459 kts | 275° |
| 2026-05-05 21:36 | 61.18583 | 66.46841 | 37824 ft | 459 kts | 275° |
| 2026-05-05 21:36 | 61.19197 | 66.33722 | 37817 ft | 458 kts | 275° |
| 2026-05-05 21:37 | 61.19800 | 66.20539 | 37818 ft | 458 kts | 275° |
| 2026-05-05 21:37 | 61.20386 | 66.07456 | 37818 ft | 458 kts | 275° |
| 2026-05-05 21:38 | 61.20964 | 65.94277 | 37812 ft | 458 kts | 275° |
| 2026-05-05 21:38 | 61.21525 | 65.81184 | 37807 ft | 458 kts | 275° |
| 2026-05-05 21:39 | 61.22077 | 65.67981 | 37807 ft | 457 kts | 275° |
| 2026-05-05 21:39 | 61.22612 | 65.54895 | 37824 ft | 457 kts | 274° |
| 2026-05-05 21:40 | 61.23137 | 65.41726 | 37802 ft | 457 kts | 274° |
| 2026-05-05 21:40 | 61.23649 | 65.28555 | 37795 ft | 457 kts | 274° |
| 2026-05-05 21:41 | 61.24147 | 65.15432 | 37799 ft | 457 kts | 274° |
| 2026-05-05 21:41 | 61.24635 | 65.02211 | 37799 ft | 457 kts | 274° |
| 2026-05-05 21:42 | 61.25106 | 64.89107 | 37792 ft | 457 kts | 274° |
| 2026-05-05 21:42 | 61.25568 | 64.75900 | 37791 ft | 457 kts | 274° |
| 2026-05-05 21:43 | 61.26018 | 64.62684 | 37787 ft | 458 kts | 274° |
| 2026-05-05 21:43 | 61.26455 | 64.49527 | 37788 ft | 458 kts | 274° |
| 2026-05-05 21:44 | 61.26898 | 64.36292 | 37785 ft | 458 kts | 274° |
| 2026-05-05 21:44 | 61.27328 | 64.23132 | 37782 ft | 458 kts | 274° |
| 2026-05-05 21:45 | 61.27746 | 64.09889 | 37774 ft | 457 kts | 273° |
| 2026-05-05 21:45 | 61.28149 | 63.96729 | 37773 ft | 457 kts | 273° |
| 2026-05-05 21:46 | 61.28537 | 63.83589 | 37777 ft | 457 kts | 273° |
| 2026-05-05 21:46 | 61.28917 | 63.70365 | 37779 ft | 457 kts | 273° |
| 2026-05-05 21:47 | 61.29771 | 63.57260 | 37767 ft | 457 kts | 278° |
| 2026-05-05 21:47 | 61.30651 | 63.46405 | 37763 ft | 457 kts | 279° |
| 2026-05-05 21:48 | 61.31733 | 63.33413 | 37765 ft | 457 kts | 279° |
| 2026-05-05 21:48 | 61.32808 | 63.20343 | 37759 ft | 457 kts | 279° |
| 2026-05-05 21:49 | 61.33865 | 63.07234 | 37757 ft | 457 kts | 279° |
| 2026-05-05 21:49 | 61.34897 | 62.94219 | 37773 ft | 457 kts | 279° |
| 2026-05-05 21:50 | 61.35916 | 62.81202 | 37760 ft | 456 kts | 278° |
| 2026-05-05 21:50 | 61.36925 | 62.68149 | 37749 ft | 455 kts | 278° |
| 2026-05-05 21:51 | 61.37937 | 62.55070 | 37752 ft | 455 kts | 278° |
| 2026-05-05 21:51 | 61.38936 | 62.42076 | 37752 ft | 455 kts | 278° |
| 2026-05-05 21:52 | 61.40417 | 62.22463 | 37737 ft | 456 kts | 278° |
| 2026-05-05 21:53 | 61.41385 | 62.09417 | 37740 ft | 456 kts | 278° |
| 2026-05-05 21:53 | 61.42343 | 61.96318 | 37736 ft | 456 kts | 278° |
| 2026-05-05 21:54 | 61.43288 | 61.83241 | 37750 ft | 456 kts | 278° |
| 2026-05-05 21:54 | 61.44224 | 61.70091 | 37727 ft | 457 kts | 277° |
| 2026-05-05 21:55 | 61.45148 | 61.56923 | 37727 ft | 457 kts | 277° |
| 2026-05-05 21:55 | 61.46054 | 61.43828 | 37713 ft | 457 kts | 277° |
| 2026-05-05 21:56 | 61.46952 | 61.30651 | 37724 ft | 457 kts | 277° |
| 2026-05-05 21:56 | 61.47836 | 61.17505 | 37721 ft | 457 kts | 277° |
| 2026-05-05 21:57 | 61.48718 | 61.04302 | 37718 ft | 457 kts | 277° |
| 2026-05-05 21:57 | 61.49583 | 60.91174 | 37716 ft | 457 kts | 277° |
| 2026-05-05 21:58 | 61.50441 | 60.77972 | 37717 ft | 457 kts | 277° |
| 2026-05-05 21:58 | 61.51281 | 60.64816 | 37720 ft | 456 kts | 277° |
| 2026-05-05 21:59 | 61.52110 | 60.51649 | 37715 ft | 453 kts | 277° |
| 2026-05-05 21:59 | 61.52918 | 60.38592 | 37717 ft | 450 kts | 277° |
| 2026-05-05 22:00 | 61.53705 | 60.25671 | 37716 ft | 449 kts | 277° |
| 2026-05-05 22:00 | 61.54485 | 60.12653 | 37719 ft | 449 kts | 276° |
| 2026-05-05 22:01 | 61.55254 | 59.99624 | 37893 ft | 449 kts | 276° |
| 2026-05-05 22:01 | 61.55632 | 59.93220 | 38140 ft | 447 kts | 276° |
| 2026-05-05 22:01 | 61.56010 | 59.86761 | 38378 ft | 445 kts | 276° |
| 2026-05-05 22:01 | 61.56383 | 59.80304 | 38519 ft | 445 kts | 276° |
| 2026-05-05 22:02 | 61.56753 | 59.73818 | 38606 ft | 446 kts | 276° |
| 2026-05-05 22:02 | 61.57120 | 59.67330 | 38710 ft | 447 kts | 276° |
| 2026-05-05 22:02 | 61.57485 | 59.60843 | 38809 ft | 447 kts | 276° |
| 2026-05-05 22:03 | 61.58204 | 59.47897 | 38981 ft | 449 kts | 276° |
| 2026-05-05 22:03 | 61.58917 | 59.34858 | 39201 ft | 449 kts | 276° |
| 2026-05-05 22:04 | 61.59612 | 59.21884 | 39370 ft | 449 kts | 276° |
| 2026-05-05 22:04 | 61.60300 | 59.08810 | 39563 ft | 450 kts | 275° |
| 2026-05-05 22:05 | 61.60977 | 58.95715 | 39709 ft | 451 kts | 275° |
| 2026-05-05 22:05 | 61.61642 | 58.82610 | 39725 ft | 453 kts | 275° |
| 2026-05-05 22:06 | 61.62298 | 58.69414 | 39725 ft | 454 kts | 275° |
| 2026-05-05 22:06 | 61.62944 | 58.56186 | 39728 ft | 456 kts | 275° |
| 2026-05-05 22:07 | 61.63585 | 58.42876 | 39719 ft | 456 kts | 275° |
| 2026-05-05 22:07 | 61.64293 | 58.29672 | 39724 ft | 456 kts | 276° |
| 2026-05-05 22:08 | 61.65024 | 58.16360 | 39715 ft | 456 kts | 276° |
| 2026-05-05 22:08 | 61.65726 | 58.03161 | 39732 ft | 456 kts | 275° |
| 2026-05-05 22:09 | 61.66412 | 57.89862 | 39718 ft | 456 kts | 275° |
| 2026-05-05 22:09 | 61.67079 | 57.76598 | 39722 ft | 457 kts | 275° |
| 2026-05-05 22:10 | 61.67737 | 57.63257 | 39716 ft | 457 kts | 275° |
| 2026-05-05 22:10 | 61.68382 | 57.49945 | 39717 ft | 457 kts | 275° |
| 2026-05-05 22:11 | 61.69011 | 57.36671 | 39716 ft | 457 kts | 275° |
| 2026-05-05 22:11 | 61.69631 | 57.23341 | 39712 ft | 457 kts | 275° |
| 2026-05-05 22:12 | 61.70237 | 57.10000 | 39713 ft | 457 kts | 274° |
| 2026-05-05 22:12 | 61.70830 | 56.96640 | 39719 ft | 457 kts | 274° |
| 2026-05-05 22:13 | 61.71410 | 56.83299 | 39711 ft | 457 kts | 274° |
| 2026-05-05 22:13 | 61.71974 | 56.70007 | 39718 ft | 457 kts | 274° |
| 2026-05-05 22:14 | 61.72527 | 56.56679 | 39709 ft | 457 kts | 274° |
| 2026-05-05 22:14 | 61.73070 | 56.43275 | 39711 ft | 457 kts | 274° |
| 2026-05-05 22:15 | 61.73596 | 56.29974 | 39715 ft | 457 kts | 274° |
| 2026-05-05 22:15 | 61.74111 | 56.16598 | 39728 ft | 457 kts | 274° |
| 2026-05-05 22:16 | 61.74613 | 56.03232 | 39719 ft | 456 kts | 273° |
| 2026-05-05 22:16 | 61.75102 | 55.89856 | 39709 ft | 456 kts | 273° |
| 2026-05-05 22:17 | 61.75576 | 55.76547 | 39713 ft | 456 kts | 273° |
| 2026-05-05 22:17 | 61.76038 | 55.63170 | 39713 ft | 456 kts | 273° |
| 2026-05-05 22:18 | 61.76486 | 55.49856 | 39719 ft | 456 kts | 273° |
| 2026-05-05 22:18 | 61.76923 | 55.36467 | 39720 ft | 456 kts | 273° |
| 2026-05-05 22:19 | 61.77347 | 55.23083 | 39721 ft | 456 kts | 272° |
| 2026-05-05 22:19 | 61.77755 | 55.09767 | 39718 ft | 456 kts | 272° |
| 2026-05-05 22:20 | 61.78153 | 54.96385 | 39724 ft | 455 kts | 272° |
| 2026-05-05 22:20 | 61.78534 | 54.83096 | 39721 ft | 455 kts | 272° |
| 2026-05-05 22:21 | 61.78907 | 54.69710 | 39727 ft | 455 kts | 272° |
| 2026-05-05 22:21 | 61.79292 | 54.56419 | 39726 ft | 455 kts | 272° |
| 2026-05-05 22:22 | 61.79677 | 54.43034 | 39724 ft | 455 kts | 272° |
| 2026-05-05 22:22 | 61.80045 | 54.29677 | 39730 ft | 455 kts | 272° |
| 2026-05-05 22:23 | 61.80396 | 54.16387 | 39734 ft | 455 kts | 272° |
| 2026-05-05 22:23 | 61.80736 | 54.02974 | 39738 ft | 455 kts | 272° |
| 2026-05-05 22:24 | 61.81060 | 53.89660 | 39744 ft | 455 kts | 271° |
| 2026-05-05 22:24 | 61.81374 | 53.76240 | 39736 ft | 455 kts | 271° |
| 2026-05-05 22:25 | 61.81674 | 53.62875 | 39738 ft | 455 kts | 271° |
| 2026-05-05 22:25 | 61.81959 | 53.49590 | 39738 ft | 455 kts | 271° |
| 2026-05-05 22:26 | 61.82235 | 53.36178 | 39741 ft | 455 kts | 271° |
| 2026-05-05 22:26 | 61.82506 | 53.22803 | 39741 ft | 454 kts | 271° |
| 2026-05-05 22:27 | 61.82766 | 53.09494 | 39738 ft | 454 kts | 271° |
| 2026-05-05 22:27 | 61.83014 | 52.96144 | 39739 ft | 454 kts | 271° |
| 2026-05-05 22:28 | 61.83248 | 52.82775 | 39740 ft | 454 kts | 271° |
| 2026-05-05 22:28 | 61.83468 | 52.69445 | 39729 ft | 454 kts | 270° |
| 2026-05-05 22:29 | 61.83675 | 52.56078 | 39736 ft | 454 kts | 270° |
| 2026-05-05 22:29 | 61.83868 | 52.42768 | 39735 ft | 454 kts | 270° |
| 2026-05-05 22:30 | 61.84051 | 52.29372 | 39728 ft | 454 kts | 270° |
| 2026-05-05 22:30 | 61.84151 | 52.16030 | 39728 ft | 454 kts | 269° |
| 2026-05-05 22:31 | 61.84169 | 52.02609 | 39731 ft | 454 kts | 269° |
| 2026-05-05 22:31 | 61.84182 | 51.89300 | 39721 ft | 455 kts | 269° |
| 2026-05-05 22:32 | 61.84196 | 51.75906 | 39727 ft | 455 kts | 269° |
| 2026-05-05 22:32 | 61.84203 | 51.62483 | 39721 ft | 454 kts | 268° |
| 2026-05-05 22:33 | 61.84204 | 51.49150 | 39721 ft | 454 kts | 268° |
| 2026-05-05 22:33 | 61.84180 | 51.35747 | 39718 ft | 454 kts | 268° |
| 2026-05-05 22:34 | 61.84143 | 51.22449 | 39720 ft | 453 kts | 268° |
| 2026-05-05 22:34 | 61.84104 | 51.11339 | 39719 ft | 453 kts | 268° |
| 2026-05-05 22:35 | 61.84047 | 50.97958 | 39713 ft | 453 kts | 268° |
| 2026-05-05 22:35 | 61.83977 | 50.84651 | 39716 ft | 453 kts | 268° |
| 2026-05-05 22:36 | 61.83894 | 50.71368 | 39715 ft | 453 kts | 268° |
| 2026-05-05 22:36 | 61.83798 | 50.58006 | 39724 ft | 453 kts | 268° |
| 2026-05-05 22:37 | 61.83689 | 50.44624 | 39722 ft | 452 kts | 268° |
| 2026-05-05 22:37 | 61.83568 | 50.31357 | 39727 ft | 452 kts | 268° |
| 2026-05-05 22:38 | 61.83434 | 50.18047 | 39726 ft | 452 kts | 267° |
| 2026-05-05 22:38 | 61.83287 | 50.04803 | 39721 ft | 452 kts | 267° |
| 2026-05-05 22:39 | 61.83127 | 49.91484 | 39724 ft | 452 kts | 267° |
| 2026-05-05 22:39 | 61.82955 | 49.78231 | 39725 ft | 452 kts | 267° |
| 2026-05-05 22:40 | 61.82814 | 49.64907 | 39717 ft | 452 kts | 268° |
| 2026-05-05 22:40 | 61.82784 | 49.51568 | 39731 ft | 452 kts | 268° |
| 2026-05-05 22:41 | 61.82752 | 49.38332 | 39757 ft | 453 kts | 268° |
| 2026-05-05 22:41 | 61.82648 | 49.24989 | 39734 ft | 452 kts | 267° |
| 2026-05-05 22:42 | 61.82458 | 49.11761 | 39731 ft | 451 kts | 266° |
| 2026-05-05 22:42 | 61.82256 | 48.98468 | 39731 ft | 451 kts | 266° |
| 2026-05-05 22:43 | 61.82054 | 48.85187 | 39734 ft | 451 kts | 266° |
| 2026-05-05 22:43 | 61.81847 | 48.71968 | 39721 ft | 451 kts | 266° |
| 2026-05-05 22:44 | 61.81627 | 48.58681 | 39731 ft | 452 kts | 266° |
| 2026-05-05 22:44 | 61.81393 | 48.45370 | 39735 ft | 452 kts | 266° |
| 2026-05-05 22:45 | 61.81147 | 48.32152 | 39734 ft | 452 kts | 266° |
| 2026-05-05 22:45 | 61.80886 | 48.18860 | 39737 ft | 452 kts | 266° |
| 2026-05-05 22:46 | 61.80614 | 48.05590 | 39737 ft | 451 kts | 266° |
| 2026-05-05 22:46 | 61.80330 | 47.92369 | 39735 ft | 451 kts | 266° |
| 2026-05-05 22:47 | 61.80031 | 47.79074 | 39734 ft | 451 kts | 266° |
| 2026-05-05 22:47 | 61.79722 | 47.65887 | 39736 ft | 451 kts | 265° |
| 2026-05-05 22:48 | 61.79398 | 47.52627 | 39736 ft | 451 kts | 265° |
| 2026-05-05 22:48 | 61.79061 | 47.39351 | 39747 ft | 451 kts | 265° |
| 2026-05-05 22:49 | 61.78733 | 47.26105 | 39736 ft | 451 kts | 265° |
| 2026-05-05 22:49 | 61.78397 | 47.12933 | 39736 ft | 451 kts | 265° |
| 2026-05-05 22:50 | 61.78012 | 46.99673 | 39738 ft | 451 kts | 264° |
| 2026-05-05 22:50 | 61.77542 | 46.86436 | 39728 ft | 451 kts | 264° |
| 2026-05-05 22:51 | 61.77056 | 46.73199 | 39736 ft | 452 kts | 264° |
| 2026-05-05 22:51 | 61.76571 | 46.60009 | 39736 ft | 452 kts | 264° |
| 2026-05-05 22:52 | 61.76077 | 46.46767 | 39731 ft | 452 kts | 264° |
| 2026-05-05 22:52 | 61.75573 | 46.33581 | 39730 ft | 452 kts | 264° |
| 2026-05-05 22:53 | 61.75052 | 46.20314 | 39731 ft | 452 kts | 264° |
| 2026-05-05 22:53 | 61.74523 | 46.07154 | 39730 ft | 452 kts | 264° |
| 2026-05-05 22:54 | 61.73978 | 45.93928 | 39730 ft | 451 kts | 264° |
| 2026-05-05 22:54 | 61.73422 | 45.80738 | 39723 ft | 451 kts | 263° |
| 2026-05-05 22:55 | 61.72853 | 45.67554 | 39723 ft | 451 kts | 263° |
| 2026-05-05 22:55 | 61.72273 | 45.54431 | 39722 ft | 451 kts | 263° |
| 2026-05-05 22:56 | 61.71678 | 45.41252 | 39721 ft | 451 kts | 263° |
| 2026-05-05 22:56 | 61.71075 | 45.28167 | 39728 ft | 451 kts | 263° |
| 2026-05-05 22:57 | 61.70454 | 45.14961 | 39727 ft | 451 kts | 263° |
| 2026-05-05 22:57 | 61.69828 | 45.01889 | 39716 ft | 451 kts | 263° |
| 2026-05-05 22:58 | 61.69217 | 44.88734 | 39725 ft | 450 kts | 263° |
| 2026-05-05 22:58 | 61.68605 | 44.75598 | 39724 ft | 450 kts | 263° |
| 2026-05-05 22:59 | 61.67979 | 44.62523 | 39716 ft | 450 kts | 263° |
| 2026-05-05 22:59 | 61.67334 | 44.49406 | 39719 ft | 450 kts | 263° |
| 2026-05-05 23:00 | 61.66341 | 44.29732 | 39721 ft | 450 kts | 262° |
| 2026-05-05 23:00 | 61.65667 | 44.16693 | 39716 ft | 449 kts | 262° |
| 2026-05-05 23:01 | 61.64979 | 44.03605 | 39719 ft | 449 kts | 262° |
| 2026-05-05 23:01 | 61.64282 | 43.90606 | 39719 ft | 449 kts | 262° |
| 2026-05-05 23:02 | 61.63567 | 43.77513 | 39722 ft | 449 kts | 262° |
| 2026-05-05 23:02 | 61.62842 | 43.64475 | 39720 ft | 448 kts | 262° |
| 2026-05-05 23:03 | 61.62109 | 43.51504 | 39719 ft | 448 kts | 262° |
| 2026-05-05 23:03 | 61.61364 | 43.38557 | 39718 ft | 448 kts | 262° |
| 2026-05-05 23:04 | 61.60601 | 43.25516 | 39714 ft | 448 kts | 262° |
| 2026-05-05 23:04 | 61.59831 | 43.12565 | 39716 ft | 448 kts | 262° |
| 2026-05-05 23:05 | 61.59046 | 42.99581 | 39716 ft | 448 kts | 261° |
| 2026-05-05 23:05 | 61.58248 | 42.86585 | 39717 ft | 448 kts | 261° |
| 2026-05-05 23:06 | 61.57442 | 42.73661 | 39713 ft | 448 kts | 261° |
| 2026-05-05 23:06 | 61.56619 | 42.60677 | 39738 ft | 448 kts | 261° |
| 2026-05-05 23:07 | 61.55791 | 42.47810 | 39713 ft | 447 kts | 261° |
| 2026-05-05 23:07 | 61.54945 | 42.34859 | 39699 ft | 447 kts | 261° |
| 2026-05-05 23:08 | 61.54098 | 42.21911 | 39708 ft | 447 kts | 261° |
| 2026-05-05 23:08 | 61.53259 | 42.09029 | 39709 ft | 447 kts | 261° |
| 2026-05-05 23:09 | 61.52403 | 41.96082 | 39709 ft | 447 kts | 261° |
| 2026-05-05 23:09 | 61.51538 | 41.83219 | 39704 ft | 447 kts | 261° |
| 2026-05-05 23:10 | 61.50656 | 41.70303 | 39709 ft | 447 kts | 261° |
| 2026-05-05 23:10 | 61.49766 | 41.57467 | 39713 ft | 447 kts | 260° |
| 2026-05-05 23:11 | 61.48859 | 41.44558 | 39714 ft | 448 kts | 260° |
| 2026-05-05 23:11 | 61.47937 | 41.31632 | 39706 ft | 448 kts | 260° |
| 2026-05-05 23:12 | 61.47009 | 41.18792 | 39715 ft | 448 kts | 260° |
| 2026-05-05 23:12 | 61.46063 | 41.05878 | 39698 ft | 448 kts | 260° |
| 2026-05-05 23:13 | 61.45105 | 40.92962 | 39716 ft | 448 kts | 260° |
| 2026-05-05 23:13 | 61.44139 | 40.80126 | 39715 ft | 448 kts | 259° |
| 2026-05-05 23:14 | 61.43156 | 40.67227 | 39720 ft | 448 kts | 259° |
| 2026-05-05 23:14 | 61.42168 | 40.54428 | 39705 ft | 448 kts | 259° |
| 2026-05-05 23:15 | 61.41161 | 40.41552 | 39750 ft | 448 kts | 259° |
| 2026-05-05 23:15 | 61.40148 | 40.28769 | 39713 ft | 448 kts | 259° |
| 2026-05-05 23:16 | 61.39116 | 40.15898 | 39713 ft | 448 kts | 259° |
| 2026-05-05 23:16 | 61.38079 | 40.03123 | 39714 ft | 449 kts | 259° |
| 2026-05-05 23:17 | 61.37023 | 39.90267 | 39719 ft | 448 kts | 259° |
| 2026-05-05 23:17 | 61.35955 | 39.77432 | 39719 ft | 448 kts | 259° |
| 2026-05-05 23:18 | 61.34884 | 39.64705 | 39715 ft | 448 kts | 259° |
| 2026-05-05 23:18 | 61.33795 | 39.51919 | 39718 ft | 448 kts | 259° |
| 2026-05-05 23:19 | 61.32691 | 39.39106 | 39717 ft | 448 kts | 258° |
| 2026-05-05 23:19 | 61.31583 | 39.26393 | 39722 ft | 448 kts | 258° |
| 2026-05-05 23:20 | 61.30454 | 39.13589 | 39716 ft | 449 kts | 258° |
| 2026-05-05 23:20 | 61.29322 | 39.00893 | 39716 ft | 449 kts | 258° |
| 2026-05-05 23:21 | 61.28181 | 38.88106 | 39716 ft | 449 kts | 258° |
| 2026-05-05 23:21 | 61.27042 | 38.75410 | 39718 ft | 448 kts | 258° |
| 2026-05-05 23:22 | 61.26075 | 38.64744 | 39719 ft | 448 kts | 258° |
| 2026-05-05 23:22 | 61.24914 | 38.52074 | 39719 ft | 448 kts | 258° |
| 2026-05-05 23:23 | 61.23741 | 38.39434 | 39724 ft | 447 kts | 258° |
| 2026-05-05 23:23 | 61.22308 | 38.26840 | 39725 ft | 447 kts | 255° |
| 2026-05-05 23:24 | 61.20726 | 38.14363 | 39726 ft | 446 kts | 255° |
| 2026-05-05 23:24 | 61.19160 | 38.01891 | 39720 ft | 446 kts | 255° |
| 2026-05-05 23:25 | 61.17631 | 37.89515 | 39727 ft | 445 kts | 255° |
| 2026-05-05 23:25 | 61.16092 | 37.77065 | 39730 ft | 445 kts | 255° |
| 2026-05-05 23:26 | 61.14552 | 37.64697 | 39730 ft | 445 kts | 255° |
| 2026-05-05 23:26 | 61.12989 | 37.52273 | 39730 ft | 445 kts | 255° |
| 2026-05-05 23:27 | 61.11416 | 37.39869 | 39736 ft | 445 kts | 255° |
| 2026-05-05 23:27 | 61.09841 | 37.27561 | 39735 ft | 445 kts | 255° |
| 2026-05-05 23:28 | 61.08248 | 37.15204 | 39725 ft | 445 kts | 255° |
| 2026-05-05 23:28 | 61.06638 | 37.02820 | 39748 ft | 445 kts | 254° |
| 2026-05-05 23:29 | 61.05028 | 36.90529 | 39740 ft | 445 kts | 254° |
| 2026-05-05 23:29 | 61.03396 | 36.78174 | 39738 ft | 445 kts | 254° |
| 2026-05-05 23:30 | 61.01765 | 36.65920 | 39740 ft | 445 kts | 254° |
| 2026-05-05 23:30 | 61.00111 | 36.53598 | 39744 ft | 445 kts | 254° |
| 2026-05-05 23:31 | 60.98460 | 36.41382 | 39741 ft | 445 kts | 254° |
| 2026-05-05 23:31 | 60.96712 | 36.29121 | 39739 ft | 445 kts | 251° |
| 2026-05-05 23:32 | 60.94657 | 36.17074 | 39745 ft | 445 kts | 250° |
| 2026-05-05 23:32 | 60.92571 | 36.05171 | 39743 ft | 444 kts | 250° |
| 2026-05-05 23:33 | 60.90507 | 35.93191 | 39746 ft | 444 kts | 250° |
| 2026-05-05 23:33 | 60.88456 | 35.81193 | 39747 ft | 444 kts | 250° |
| 2026-05-05 23:34 | 60.86413 | 35.69278 | 39746 ft | 444 kts | 250° |
| 2026-05-05 23:34 | 60.84346 | 35.57312 | 39741 ft | 444 kts | 250° |
| 2026-05-05 23:35 | 60.82278 | 35.45422 | 39759 ft | 444 kts | 250° |
| 2026-05-05 23:35 | 60.80187 | 35.33508 | 39743 ft | 444 kts | 250° |
| 2026-05-05 23:36 | 60.78088 | 35.21612 | 39749 ft | 444 kts | 250° |
| 2026-05-05 23:36 | 60.75985 | 35.09762 | 39765 ft | 444 kts | 250° |
| 2026-05-05 23:37 | 60.73867 | 34.97909 | 39748 ft | 444 kts | 250° |
| 2026-05-05 23:37 | 60.71744 | 34.86102 | 39744 ft | 444 kts | 250° |
| 2026-05-05 23:38 | 60.69599 | 34.74249 | 39767 ft | 444 kts | 250° |
| 2026-05-05 23:38 | 60.67457 | 34.62484 | 39752 ft | 444 kts | 249° |
| 2026-05-05 23:39 | 60.65290 | 34.50650 | 39752 ft | 445 kts | 249° |
| 2026-05-05 23:39 | 60.63121 | 34.38878 | 39755 ft | 444 kts | 249° |
| 2026-05-05 23:40 | 60.60932 | 34.27074 | 39755 ft | 445 kts | 249° |
| 2026-05-05 23:40 | 60.58732 | 34.15284 | 39755 ft | 445 kts | 249° |
| 2026-05-05 23:41 | 60.56537 | 34.03585 | 39757 ft | 445 kts | 249° |
| 2026-05-05 23:41 | 60.54316 | 33.91824 | 39753 ft | 445 kts | 249° |
| 2026-05-05 23:42 | 60.52099 | 33.80154 | 39756 ft | 445 kts | 249° |
| 2026-05-05 23:42 | 60.49856 | 33.68416 | 39758 ft | 445 kts | 249° |
| 2026-05-05 23:43 | 60.47607 | 33.56717 | 39763 ft | 445 kts | 249° |
| 2026-05-05 23:43 | 60.45347 | 33.45031 | 39760 ft | 445 kts | 249° |
| 2026-05-05 23:44 | 60.43091 | 33.33436 | 39763 ft | 445 kts | 249° |
| 2026-05-05 23:44 | 60.40811 | 33.21781 | 39765 ft | 445 kts | 248° |
| 2026-05-05 23:45 | 60.38514 | 33.10110 | 39767 ft | 445 kts | 248° |
| 2026-05-05 23:45 | 60.36230 | 32.98574 | 39766 ft | 445 kts | 248° |
| 2026-05-05 23:46 | 60.33918 | 32.86964 | 39774 ft | 445 kts | 248° |
| 2026-05-05 23:46 | 60.31594 | 32.75358 | 39774 ft | 445 kts | 248° |
| 2026-05-05 23:47 | 60.29278 | 32.63860 | 39770 ft | 445 kts | 248° |
| 2026-05-05 23:47 | 60.26949 | 32.52364 | 39787 ft | 444 kts | 248° |
| 2026-05-05 23:48 | 60.24598 | 32.40821 | 39785 ft | 444 kts | 248° |
| 2026-05-05 23:48 | 60.22246 | 32.29343 | 39779 ft | 445 kts | 248° |
| 2026-05-05 23:49 | 60.19877 | 32.17823 | 39777 ft | 445 kts | 248° |
| 2026-05-05 23:49 | 60.17504 | 32.06317 | 39780 ft | 445 kts | 248° |
| 2026-05-05 23:50 | 60.15136 | 31.94890 | 39767 ft | 445 kts | 248° |
| 2026-05-05 23:50 | 60.12748 | 31.83440 | 39779 ft | 444 kts | 248° |
| 2026-05-05 23:51 | 60.10366 | 31.72049 | 39783 ft | 444 kts | 248° |
| 2026-05-05 23:51 | 60.07961 | 31.60617 | 39782 ft | 444 kts | 247° |
| 2026-05-05 23:52 | 60.05548 | 31.49219 | 39788 ft | 444 kts | 247° |
| 2026-05-05 23:52 | 60.03396 | 31.37668 | 39788 ft | 444 kts | 251° |
| 2026-05-05 23:53 | 60.01463 | 31.25908 | 39786 ft | 444 kts | 252° |
| 2026-05-05 23:53 | 59.99573 | 31.14224 | 39785 ft | 443 kts | 252° |
| 2026-05-05 23:54 | 59.97672 | 31.02564 | 39788 ft | 443 kts | 252° |
| 2026-05-05 23:54 | 59.95749 | 30.90882 | 39793 ft | 443 kts | 251° |
| 2026-05-05 23:55 | 59.93811 | 30.79212 | 39793 ft | 443 kts | 251° |
| 2026-05-05 23:55 | 59.91859 | 30.67533 | 39796 ft | 443 kts | 251° |
| 2026-05-05 23:56 | 59.89915 | 30.55956 | 39799 ft | 443 kts | 251° |
| 2026-05-05 23:56 | 59.87954 | 30.44313 | 39781 ft | 442 kts | 251° |
| 2026-05-05 23:57 | 59.85980 | 30.32686 | 39814 ft | 443 kts | 251° |
| 2026-05-05 23:57 | 59.83997 | 30.21075 | 39801 ft | 443 kts | 251° |
| 2026-05-05 23:58 | 59.82012 | 30.09518 | 39801 ft | 443 kts | 251° |
| 2026-05-05 23:58 | 59.80015 | 29.97928 | 39807 ft | 443 kts | 251° |
| 2026-05-05 23:59 | 59.78012 | 29.86418 | 39815 ft | 443 kts | 251° |
| 2026-05-05 23:59 | 59.75987 | 29.74852 | 39815 ft | 443 kts | 251° |
| 2026-05-06 00:00 | 59.73952 | 29.63297 | 39831 ft | 443 kts | 251° |
| 2026-05-06 00:00 | 59.71927 | 29.51856 | 39819 ft | 443 kts | 251° |
| 2026-05-06 00:01 | 59.69776 | 29.40386 | 39834 ft | 443 kts | 249° |
| 2026-05-06 00:01 | 59.67535 | 29.29019 | 39834 ft | 443 kts | 249° |
| 2026-05-06 00:02 | 59.65293 | 29.17643 | 39831 ft | 443 kts | 249° |
| 2026-05-06 00:02 | 59.63070 | 29.06330 | 39846 ft | 443 kts | 249° |
| 2026-05-06 00:03 | 59.60883 | 28.94908 | 39846 ft | 443 kts | 250° |
| 2026-05-06 00:03 | 59.58875 | 28.83465 | 39844 ft | 443 kts | 251° |
| 2026-05-06 00:04 | 59.56862 | 28.71959 | 39856 ft | 443 kts | 251° |
| 2026-05-06 00:04 | 59.54823 | 28.60542 | 39855 ft | 443 kts | 251° |
| 2026-05-06 00:05 | 59.51717 | 28.43343 | 39859 ft | 443 kts | 251° |
| 2026-05-06 00:06 | 59.49667 | 28.31958 | 39862 ft | 443 kts | 251° |
| 2026-05-06 00:06 | 59.47592 | 28.20491 | 39859 ft | 443 kts | 250° |
| 2026-05-06 00:07 | 59.45523 | 28.09135 | 39866 ft | 443 kts | 250° |
| 2026-05-06 00:07 | 59.43371 | 27.97770 | 39867 ft | 443 kts | 250° |
| 2026-05-06 00:08 | 59.41172 | 27.86479 | 39869 ft | 443 kts | 249° |
| 2026-05-06 00:08 | 59.38974 | 27.75231 | 39876 ft | 443 kts | 249° |
| 2026-05-06 00:09 | 59.37139 | 27.65846 | 39875 ft | 443 kts | 249° |
| 2026-05-06 00:09 | 59.34928 | 27.54571 | 39884 ft | 443 kts | 249° |
| 2026-05-06 00:10 | 59.32746 | 27.43279 | 39911 ft | 443 kts | 251° |
| 2026-05-06 00:10 | 59.30820 | 27.31825 | 39883 ft | 442 kts | 252° |
| 2026-05-06 00:11 | 59.28954 | 27.20436 | 39895 ft | 441 kts | 252° |
| 2026-05-06 00:11 | 59.27023 | 27.08983 | 39895 ft | 441 kts | 252° |
| 2026-05-06 00:12 | 59.25063 | 26.97603 | 39897 ft | 441 kts | 251° |
| 2026-05-06 00:12 | 59.23098 | 26.86301 | 39903 ft | 441 kts | 251° |
| 2026-05-06 00:13 | 59.21110 | 26.74936 | 39903 ft | 441 kts | 251° |
| 2026-05-06 00:13 | 59.19126 | 26.63656 | 39903 ft | 441 kts | 251° |
| 2026-05-06 00:14 | 59.17121 | 26.52319 | 39928 ft | 442 kts | 251° |
| 2026-05-06 00:14 | 59.15116 | 26.41050 | 39911 ft | 442 kts | 251° |
| 2026-05-06 00:15 | 59.13085 | 26.29707 | 39912 ft | 442 kts | 251° |
| 2026-05-06 00:15 | 59.11053 | 26.18424 | 39912 ft | 442 kts | 251° |
| 2026-05-06 00:16 | 59.09017 | 26.07188 | 39911 ft | 442 kts | 251° |
| 2026-05-06 00:16 | 59.06960 | 25.95904 | 39916 ft | 442 kts | 251° |
| 2026-05-06 00:17 | 59.04906 | 25.84704 | 39916 ft | 442 kts | 251° |
| 2026-05-06 00:17 | 59.02830 | 25.73452 | 39917 ft | 442 kts | 251° |
| 2026-05-06 00:18 | 59.00746 | 25.62219 | 39914 ft | 442 kts | 250° |
| 2026-05-06 00:18 | 58.98653 | 25.51006 | 39917 ft | 442 kts | 250° |
| 2026-05-06 00:19 | 58.96560 | 25.39852 | 39914 ft | 442 kts | 250° |
| 2026-05-06 00:19 | 58.94448 | 25.28670 | 39916 ft | 442 kts | 250° |
| 2026-05-06 00:20 | 58.92333 | 25.17533 | 39918 ft | 442 kts | 250° |
| 2026-05-06 00:20 | 58.90202 | 25.06373 | 39913 ft | 442 kts | 250° |